<?xml version="1.0" encoding="UTF-8" standalone="no" ?>
<gpx xmlns="http://www.topografix.com/GPX/1/1" xmlns:xsi="http://www.w3.org/2001/XMLSchema-instance" xsi:schemaLocation="http://www.topografix.com/GPX/1/1 http://www.topografix.com/GPX/1/1/gpx.xsd" version="1.1" creator="VisuGPX - https://www.visugpx.com">
  <metadata>
    <name>Entrainement #trail Tourbillon la Chaux #ovronnaz</name>
    <desc><![CDATA[Entrainement trail. ]]></desc>
  </metadata>
  <trk>
    <name><![CDATA[Tracé actuel: 17 JUIN 2016 13:57]]></name>
    <trkseg>
      <trkpt lat="46.21229" lon="7.17577">
        <ele>1459.9</ele>
        <time>2016-06-17T11:57:57Z</time>
      </trkpt>
      <trkpt lat="46.21224" lon="7.17587">
        <ele>1467.59</ele>
        <time>2016-06-17T11:58:12Z</time>
      </trkpt>
      <trkpt lat="46.21223" lon="7.1759">
        <ele>1469.99</ele>
        <time>2016-06-17T11:58:15Z</time>
      </trkpt>
      <trkpt lat="46.21218" lon="7.17585">
        <ele>1460.38</ele>
        <time>2016-06-17T11:58:28Z</time>
      </trkpt>
      <trkpt lat="46.21204" lon="7.17594">
        <ele>1461.34</ele>
        <time>2016-06-17T11:58:46Z</time>
      </trkpt>
      <trkpt lat="46.21204" lon="7.17595">
        <ele>1462.78</ele>
        <time>2016-06-17T11:58:48Z</time>
      </trkpt>
      <trkpt lat="46.21201" lon="7.17601">
        <ele>1465.19</ele>
        <time>2016-06-17T11:59:02Z</time>
      </trkpt>
    </trkseg>
  </trk>
  <trk>
    <name><![CDATA[Tracé actuel: 17 JUIN 2016 13:59]]></name>
    <trkseg>
      <trkpt lat="46.21203" lon="7.17599">
        <ele>1459.42</ele>
        <time>2016-06-17T11:59:28Z</time>
      </trkpt>
      <trkpt lat="46.21206" lon="7.17594">
        <ele>1453.65</ele>
        <time>2016-06-17T11:59:43Z</time>
      </trkpt>
      <trkpt lat="46.21208" lon="7.17588">
        <ele>1452.69</ele>
        <time>2016-06-17T11:59:55Z</time>
      </trkpt>
      <trkpt lat="46.21213" lon="7.17581">
        <ele>1451.73</ele>
        <time>2016-06-17T12:00:17Z</time>
      </trkpt>
      <trkpt lat="46.21214" lon="7.17583">
        <ele>1453.17</ele>
        <time>2016-06-17T12:00:38Z</time>
      </trkpt>
      <trkpt lat="46.21214" lon="7.17584">
        <ele>1453.65</ele>
        <time>2016-06-17T12:00:41Z</time>
      </trkpt>
      <trkpt lat="46.21219" lon="7.17582">
        <ele>1453.65</ele>
        <time>2016-06-17T12:00:45Z</time>
      </trkpt>
      <trkpt lat="46.21223" lon="7.1758">
        <ele>1454.61</ele>
        <time>2016-06-17T12:00:48Z</time>
      </trkpt>
      <trkpt lat="46.21241" lon="7.17569">
        <ele>1457.5</ele>
        <time>2016-06-17T12:01:02Z</time>
      </trkpt>
      <trkpt lat="46.21245" lon="7.17565">
        <ele>1456.05</ele>
        <time>2016-06-17T12:01:15Z</time>
      </trkpt>
      <trkpt lat="46.21254" lon="7.17557">
        <ele>1457.02</ele>
        <time>2016-06-17T12:01:29Z</time>
      </trkpt>
      <trkpt lat="46.21271" lon="7.1754">
        <ele>1451.73</ele>
        <time>2016-06-17T12:01:43Z</time>
      </trkpt>
      <trkpt lat="46.21277" lon="7.17536">
        <ele>1451.25</ele>
        <time>2016-06-17T12:01:56Z</time>
      </trkpt>
      <trkpt lat="46.2129" lon="7.17536">
        <ele>1451.25</ele>
        <time>2016-06-17T12:02:10Z</time>
      </trkpt>
      <trkpt lat="46.21292" lon="7.17534">
        <ele>1449.81</ele>
        <time>2016-06-17T12:02:31Z</time>
      </trkpt>
      <trkpt lat="46.21295" lon="7.17528">
        <ele>1445</ele>
        <time>2016-06-17T12:03:06Z</time>
      </trkpt>
      <trkpt lat="46.21295" lon="7.17523">
        <ele>1444.52</ele>
        <time>2016-06-17T12:03:30Z</time>
      </trkpt>
      <trkpt lat="46.21303" lon="7.17524">
        <ele>1444.52</ele>
        <time>2016-06-17T12:03:49Z</time>
      </trkpt>
      <trkpt lat="46.21316" lon="7.1753">
        <ele>1448.36</ele>
        <time>2016-06-17T12:04:02Z</time>
      </trkpt>
      <trkpt lat="46.21317" lon="7.17529">
        <ele>1449.81</ele>
        <time>2016-06-17T12:04:20Z</time>
      </trkpt>
      <trkpt lat="46.21316" lon="7.17529">
        <ele>1450.29</ele>
        <time>2016-06-17T12:04:43Z</time>
      </trkpt>
      <trkpt lat="46.21321" lon="7.17531">
        <ele>1449.81</ele>
        <time>2016-06-17T12:04:54Z</time>
      </trkpt>
      <trkpt lat="46.21326" lon="7.17531">
        <ele>1449.81</ele>
        <time>2016-06-17T12:04:58Z</time>
      </trkpt>
      <trkpt lat="46.21331" lon="7.17534">
        <ele>1451.73</ele>
        <time>2016-06-17T12:05:03Z</time>
      </trkpt>
      <trkpt lat="46.21339" lon="7.17532">
        <ele>1451.25</ele>
        <time>2016-06-17T12:05:09Z</time>
      </trkpt>
      <trkpt lat="46.21361" lon="7.17517">
        <ele>1450.77</ele>
        <time>2016-06-17T12:05:28Z</time>
      </trkpt>
      <trkpt lat="46.21375" lon="7.17517">
        <ele>1452.69</ele>
        <time>2016-06-17T12:05:40Z</time>
      </trkpt>
      <trkpt lat="46.21379" lon="7.17519">
        <ele>1453.17</ele>
        <time>2016-06-17T12:05:44Z</time>
      </trkpt>
      <trkpt lat="46.21388" lon="7.17512">
        <ele>1454.61</ele>
        <time>2016-06-17T12:05:52Z</time>
      </trkpt>
      <trkpt lat="46.21394" lon="7.1751">
        <ele>1455.09</ele>
        <time>2016-06-17T12:05:57Z</time>
      </trkpt>
      <trkpt lat="46.21403" lon="7.17507">
        <ele>1456.53</ele>
        <time>2016-06-17T12:06:05Z</time>
      </trkpt>
      <trkpt lat="46.2141" lon="7.17501">
        <ele>1458.46</ele>
        <time>2016-06-17T12:06:13Z</time>
      </trkpt>
      <trkpt lat="46.21413" lon="7.175">
        <ele>1458.46</ele>
        <time>2016-06-17T12:06:15Z</time>
      </trkpt>
      <trkpt lat="46.21424" lon="7.17503">
        <ele>1463.26</ele>
        <time>2016-06-17T12:06:30Z</time>
      </trkpt>
      <trkpt lat="46.21426" lon="7.17506">
        <ele>1465.19</ele>
        <time>2016-06-17T12:06:34Z</time>
      </trkpt>
      <trkpt lat="46.21434" lon="7.1751">
        <ele>1468.07</ele>
        <time>2016-06-17T12:06:40Z</time>
      </trkpt>
      <trkpt lat="46.21454" lon="7.17507">
        <ele>1474.32</ele>
        <time>2016-06-17T12:06:56Z</time>
      </trkpt>
      <trkpt lat="46.21464" lon="7.17504">
        <ele>1476.72</ele>
        <time>2016-06-17T12:07:04Z</time>
      </trkpt>
      <trkpt lat="46.21486" lon="7.17502">
        <ele>1479.61</ele>
        <time>2016-06-17T12:07:16Z</time>
      </trkpt>
      <trkpt lat="46.21491" lon="7.17496">
        <ele>1479.61</ele>
        <time>2016-06-17T12:07:21Z</time>
      </trkpt>
      <trkpt lat="46.21495" lon="7.17495">
        <ele>1479.61</ele>
        <time>2016-06-17T12:07:24Z</time>
      </trkpt>
      <trkpt lat="46.21508" lon="7.17484">
        <ele>1478.16</ele>
        <time>2016-06-17T12:07:37Z</time>
      </trkpt>
      <trkpt lat="46.21512" lon="7.17483">
        <ele>1478.65</ele>
        <time>2016-06-17T12:07:40Z</time>
      </trkpt>
      <trkpt lat="46.2153" lon="7.17488">
        <ele>1478.16</ele>
        <time>2016-06-17T12:07:53Z</time>
      </trkpt>
      <trkpt lat="46.21545" lon="7.17483">
        <ele>1479.13</ele>
        <time>2016-06-17T12:08:05Z</time>
      </trkpt>
      <trkpt lat="46.2155" lon="7.17479">
        <ele>1478.65</ele>
        <time>2016-06-17T12:08:09Z</time>
      </trkpt>
      <trkpt lat="46.21561" lon="7.17474">
        <ele>1482.97</ele>
        <time>2016-06-17T12:08:20Z</time>
      </trkpt>
      <trkpt lat="46.21565" lon="7.17463">
        <ele>1484.89</ele>
        <time>2016-06-17T12:08:27Z</time>
      </trkpt>
      <trkpt lat="46.21567" lon="7.17458">
        <ele>1483.93</ele>
        <time>2016-06-17T12:08:29Z</time>
      </trkpt>
      <trkpt lat="46.21571" lon="7.17455">
        <ele>1485.37</ele>
        <time>2016-06-17T12:08:33Z</time>
      </trkpt>
      <trkpt lat="46.21585" lon="7.1744">
        <ele>1483.45</ele>
        <time>2016-06-17T12:08:45Z</time>
      </trkpt>
      <trkpt lat="46.21591" lon="7.17437">
        <ele>1483.45</ele>
        <time>2016-06-17T12:08:51Z</time>
      </trkpt>
      <trkpt lat="46.21597" lon="7.17431">
        <ele>1482.97</ele>
        <time>2016-06-17T12:09:04Z</time>
      </trkpt>
      <trkpt lat="46.21605" lon="7.17423">
        <ele>1478.65</ele>
        <time>2016-06-17T12:09:30Z</time>
      </trkpt>
      <trkpt lat="46.21607" lon="7.17419">
        <ele>1478.65</ele>
        <time>2016-06-17T12:09:39Z</time>
      </trkpt>
      <trkpt lat="46.21617" lon="7.17397">
        <ele>1469.51</ele>
        <time>2016-06-17T12:09:51Z</time>
      </trkpt>
      <trkpt lat="46.21618" lon="7.17396">
        <ele>1468.07</ele>
        <time>2016-06-17T12:10:14Z</time>
      </trkpt>
      <trkpt lat="46.21617" lon="7.17391">
        <ele>1467.59</ele>
        <time>2016-06-17T12:10:25Z</time>
      </trkpt>
      <trkpt lat="46.21615" lon="7.17389">
        <ele>1467.59</ele>
        <time>2016-06-17T12:10:33Z</time>
      </trkpt>
      <trkpt lat="46.21619" lon="7.1738">
        <ele>1467.11</ele>
        <time>2016-06-17T12:10:38Z</time>
      </trkpt>
      <trkpt lat="46.21621" lon="7.17376">
        <ele>1467.11</ele>
        <time>2016-06-17T12:10:40Z</time>
      </trkpt>
      <trkpt lat="46.21624" lon="7.17361">
        <ele>1468.07</ele>
        <time>2016-06-17T12:10:51Z</time>
      </trkpt>
      <trkpt lat="46.2163" lon="7.17346">
        <ele>1468.55</ele>
        <time>2016-06-17T12:11:02Z</time>
      </trkpt>
      <trkpt lat="46.21634" lon="7.17331">
        <ele>1472.4</ele>
        <time>2016-06-17T12:11:14Z</time>
      </trkpt>
      <trkpt lat="46.21639" lon="7.17319">
        <ele>1473.84</ele>
        <time>2016-06-17T12:11:21Z</time>
      </trkpt>
      <trkpt lat="46.21646" lon="7.17299">
        <ele>1473.36</ele>
        <time>2016-06-17T12:11:35Z</time>
      </trkpt>
      <trkpt lat="46.21646" lon="7.17291">
        <ele>1473.36</ele>
        <time>2016-06-17T12:11:40Z</time>
      </trkpt>
      <trkpt lat="46.21651" lon="7.17283">
        <ele>1474.32</ele>
        <time>2016-06-17T12:11:46Z</time>
      </trkpt>
      <trkpt lat="46.21668" lon="7.17272">
        <ele>1475.28</ele>
        <time>2016-06-17T12:11:58Z</time>
      </trkpt>
      <trkpt lat="46.21671" lon="7.17268">
        <ele>1475.28</ele>
        <time>2016-06-17T12:12:01Z</time>
      </trkpt>
      <trkpt lat="46.21677" lon="7.17252">
        <ele>1475.76</ele>
        <time>2016-06-17T12:12:13Z</time>
      </trkpt>
      <trkpt lat="46.21678" lon="7.17252">
        <ele>1475.28</ele>
        <time>2016-06-17T12:12:15Z</time>
      </trkpt>
      <trkpt lat="46.21692" lon="7.17239">
        <ele>1479.61</ele>
        <time>2016-06-17T12:12:28Z</time>
      </trkpt>
      <trkpt lat="46.21697" lon="7.17232">
        <ele>1482.97</ele>
        <time>2016-06-17T12:12:34Z</time>
      </trkpt>
      <trkpt lat="46.21709" lon="7.17221">
        <ele>1483.45</ele>
        <time>2016-06-17T12:12:45Z</time>
      </trkpt>
      <trkpt lat="46.21717" lon="7.17208">
        <ele>1484.89</ele>
        <time>2016-06-17T12:12:56Z</time>
      </trkpt>
      <trkpt lat="46.21719" lon="7.17206">
        <ele>1485.85</ele>
        <time>2016-06-17T12:12:59Z</time>
      </trkpt>
      <trkpt lat="46.21724" lon="7.17204">
        <ele>1487.3</ele>
        <time>2016-06-17T12:13:10Z</time>
      </trkpt>
      <trkpt lat="46.21729" lon="7.17203">
        <ele>1489.22</ele>
        <time>2016-06-17T12:13:18Z</time>
      </trkpt>
      <trkpt lat="46.21738" lon="7.17204">
        <ele>1492.58</ele>
        <time>2016-06-17T12:13:23Z</time>
      </trkpt>
      <trkpt lat="46.21743" lon="7.17201">
        <ele>1496.91</ele>
        <time>2016-06-17T12:13:34Z</time>
      </trkpt>
      <trkpt lat="46.21757" lon="7.172">
        <ele>1498.35</ele>
        <time>2016-06-17T12:13:45Z</time>
      </trkpt>
      <trkpt lat="46.21762" lon="7.17195">
        <ele>1496.43</ele>
        <time>2016-06-17T12:13:50Z</time>
      </trkpt>
      <trkpt lat="46.21766" lon="7.17195">
        <ele>1494.51</ele>
        <time>2016-06-17T12:13:55Z</time>
      </trkpt>
      <trkpt lat="46.21771" lon="7.17194">
        <ele>1492.1</ele>
        <time>2016-06-17T12:14:01Z</time>
      </trkpt>
      <trkpt lat="46.21776" lon="7.17189">
        <ele>1491.62</ele>
        <time>2016-06-17T12:14:15Z</time>
      </trkpt>
      <trkpt lat="46.21797" lon="7.17179">
        <ele>1490.66</ele>
        <time>2016-06-17T12:14:26Z</time>
      </trkpt>
      <trkpt lat="46.21805" lon="7.17177">
        <ele>1490.66</ele>
        <time>2016-06-17T12:14:31Z</time>
      </trkpt>
      <trkpt lat="46.21813" lon="7.17181">
        <ele>1491.62</ele>
        <time>2016-06-17T12:14:42Z</time>
      </trkpt>
      <trkpt lat="46.21815" lon="7.17182">
        <ele>1492.1</ele>
        <time>2016-06-17T12:14:44Z</time>
      </trkpt>
      <trkpt lat="46.21823" lon="7.17189">
        <ele>1493.06</ele>
        <time>2016-06-17T12:14:56Z</time>
      </trkpt>
      <trkpt lat="46.21825" lon="7.17191">
        <ele>1494.03</ele>
        <time>2016-06-17T12:14:58Z</time>
      </trkpt>
      <trkpt lat="46.2184" lon="7.17197">
        <ele>1497.39</ele>
        <time>2016-06-17T12:15:10Z</time>
      </trkpt>
      <trkpt lat="46.21844" lon="7.17198">
        <ele>1497.39</ele>
        <time>2016-06-17T12:15:13Z</time>
      </trkpt>
      <trkpt lat="46.21855" lon="7.17201">
        <ele>1496.43</ele>
        <time>2016-06-17T12:15:25Z</time>
      </trkpt>
      <trkpt lat="46.21862" lon="7.17205">
        <ele>1496.43</ele>
        <time>2016-06-17T12:15:29Z</time>
      </trkpt>
      <trkpt lat="46.21867" lon="7.17205">
        <ele>1496.43</ele>
        <time>2016-06-17T12:15:31Z</time>
      </trkpt>
      <trkpt lat="46.21873" lon="7.17208">
        <ele>1496.91</ele>
        <time>2016-06-17T12:15:35Z</time>
      </trkpt>
      <trkpt lat="46.21895" lon="7.17205">
        <ele>1492.58</ele>
        <time>2016-06-17T12:15:44Z</time>
      </trkpt>
      <trkpt lat="46.21901" lon="7.17204">
        <ele>1491.62</ele>
        <time>2016-06-17T12:15:47Z</time>
      </trkpt>
      <trkpt lat="46.21909" lon="7.17207">
        <ele>1489.7</ele>
        <time>2016-06-17T12:15:54Z</time>
      </trkpt>
      <trkpt lat="46.21925" lon="7.17213">
        <ele>1487.78</ele>
        <time>2016-06-17T12:16:08Z</time>
      </trkpt>
      <trkpt lat="46.21926" lon="7.17213">
        <ele>1488.26</ele>
        <time>2016-06-17T12:16:10Z</time>
      </trkpt>
      <trkpt lat="46.21941" lon="7.17219">
        <ele>1488.26</ele>
        <time>2016-06-17T12:16:23Z</time>
      </trkpt>
      <trkpt lat="46.21948" lon="7.17217">
        <ele>1487.78</ele>
        <time>2016-06-17T12:16:28Z</time>
      </trkpt>
      <trkpt lat="46.21969" lon="7.17214">
        <ele>1486.82</ele>
        <time>2016-06-17T12:16:41Z</time>
      </trkpt>
      <trkpt lat="46.21989" lon="7.17211">
        <ele>1489.7</ele>
        <time>2016-06-17T12:16:55Z</time>
      </trkpt>
      <trkpt lat="46.2199" lon="7.1721">
        <ele>1490.18</ele>
        <time>2016-06-17T12:16:56Z</time>
      </trkpt>
      <trkpt lat="46.21994" lon="7.17207">
        <ele>1491.14</ele>
        <time>2016-06-17T12:17:00Z</time>
      </trkpt>
      <trkpt lat="46.22" lon="7.17197">
        <ele>1491.14</ele>
        <time>2016-06-17T12:17:10Z</time>
      </trkpt>
      <trkpt lat="46.22003" lon="7.17199">
        <ele>1491.62</ele>
        <time>2016-06-17T12:17:13Z</time>
      </trkpt>
      <trkpt lat="46.22005" lon="7.17203">
        <ele>1491.62</ele>
        <time>2016-06-17T12:17:18Z</time>
      </trkpt>
      <trkpt lat="46.22013" lon="7.17204">
        <ele>1491.62</ele>
        <time>2016-06-17T12:17:24Z</time>
      </trkpt>
      <trkpt lat="46.22037" lon="7.17199">
        <ele>1493.06</ele>
        <time>2016-06-17T12:17:41Z</time>
      </trkpt>
      <trkpt lat="46.22052" lon="7.17187">
        <ele>1492.1</ele>
        <time>2016-06-17T12:17:53Z</time>
      </trkpt>
      <trkpt lat="46.22063" lon="7.17181">
        <ele>1492.58</ele>
        <time>2016-06-17T12:18:04Z</time>
      </trkpt>
      <trkpt lat="46.22074" lon="7.17183">
        <ele>1497.39</ele>
        <time>2016-06-17T12:18:17Z</time>
      </trkpt>
      <trkpt lat="46.22071" lon="7.17184">
        <ele>1496.43</ele>
        <time>2016-06-17T12:18:33Z</time>
      </trkpt>
      <trkpt lat="46.22065" lon="7.17183">
        <ele>1495.95</ele>
        <time>2016-06-17T12:18:51Z</time>
      </trkpt>
      <trkpt lat="46.22083" lon="7.17162">
        <ele>1485.85</ele>
        <time>2016-06-17T12:19:09Z</time>
      </trkpt>
      <trkpt lat="46.22096" lon="7.17162">
        <ele>1482.01</ele>
        <time>2016-06-17T12:19:24Z</time>
      </trkpt>
      <trkpt lat="46.22091" lon="7.17158">
        <ele>1481.53</ele>
        <time>2016-06-17T12:19:44Z</time>
      </trkpt>
      <trkpt lat="46.22093" lon="7.1716">
        <ele>1480.09</ele>
        <time>2016-06-17T12:20:03Z</time>
      </trkpt>
      <trkpt lat="46.22092" lon="7.1716">
        <ele>1479.13</ele>
        <time>2016-06-17T12:20:16Z</time>
      </trkpt>
      <trkpt lat="46.22091" lon="7.1716">
        <ele>1477.2</ele>
        <time>2016-06-17T12:20:20Z</time>
      </trkpt>
      <trkpt lat="46.2209" lon="7.17158">
        <ele>1471.44</ele>
        <time>2016-06-17T12:20:31Z</time>
      </trkpt>
      <trkpt lat="46.22089" lon="7.17157">
        <ele>1471.44</ele>
        <time>2016-06-17T12:20:32Z</time>
      </trkpt>
      <trkpt lat="46.22087" lon="7.17147">
        <ele>1470.47</ele>
        <time>2016-06-17T12:20:46Z</time>
      </trkpt>
      <trkpt lat="46.22087" lon="7.17147">
        <ele>1470.95</ele>
        <time>2016-06-17T12:20:48Z</time>
      </trkpt>
      <trkpt lat="46.22086" lon="7.17145">
        <ele>1473.36</ele>
        <time>2016-06-17T12:20:59Z</time>
      </trkpt>
      <trkpt lat="46.22082" lon="7.17144">
        <ele>1474.8</ele>
        <time>2016-06-17T12:21:13Z</time>
      </trkpt>
      <trkpt lat="46.22084" lon="7.17145">
        <ele>1474.8</ele>
        <time>2016-06-17T12:21:18Z</time>
      </trkpt>
      <trkpt lat="46.2209" lon="7.17149">
        <ele>1475.28</ele>
        <time>2016-06-17T12:21:22Z</time>
      </trkpt>
      <trkpt lat="46.22092" lon="7.17158">
        <ele>1475.76</ele>
        <time>2016-06-17T12:21:34Z</time>
      </trkpt>
      <trkpt lat="46.22091" lon="7.17161">
        <ele>1476.72</ele>
        <time>2016-06-17T12:21:44Z</time>
      </trkpt>
      <trkpt lat="46.22089" lon="7.17165">
        <ele>1477.68</ele>
        <time>2016-06-17T12:21:56Z</time>
      </trkpt>
      <trkpt lat="46.22094" lon="7.17166">
        <ele>1478.65</ele>
        <time>2016-06-17T12:22:07Z</time>
      </trkpt>
      <trkpt lat="46.22096" lon="7.17167">
        <ele>1480.57</ele>
        <time>2016-06-17T12:22:21Z</time>
      </trkpt>
      <trkpt lat="46.22095" lon="7.17167">
        <ele>1481.53</ele>
        <time>2016-06-17T12:22:34Z</time>
      </trkpt>
      <trkpt lat="46.22095" lon="7.17166">
        <ele>1482.97</ele>
        <time>2016-06-17T12:22:47Z</time>
      </trkpt>
      <trkpt lat="46.22095" lon="7.17165">
        <ele>1483.45</ele>
        <time>2016-06-17T12:22:59Z</time>
      </trkpt>
      <trkpt lat="46.22095" lon="7.17163">
        <ele>1485.37</ele>
        <time>2016-06-17T12:23:13Z</time>
      </trkpt>
      <trkpt lat="46.22096" lon="7.17162">
        <ele>1485.85</ele>
        <time>2016-06-17T12:23:26Z</time>
      </trkpt>
      <trkpt lat="46.22097" lon="7.17161">
        <ele>1486.82</ele>
        <time>2016-06-17T12:23:37Z</time>
      </trkpt>
      <trkpt lat="46.22098" lon="7.17159">
        <ele>1488.26</ele>
        <time>2016-06-17T12:23:48Z</time>
      </trkpt>
      <trkpt lat="46.221" lon="7.17164">
        <ele>1489.22</ele>
        <time>2016-06-17T12:24:02Z</time>
      </trkpt>
      <trkpt lat="46.22104" lon="7.17161">
        <ele>1489.7</ele>
        <time>2016-06-17T12:24:08Z</time>
      </trkpt>
      <trkpt lat="46.22108" lon="7.17155">
        <ele>1492.1</ele>
        <time>2016-06-17T12:24:20Z</time>
      </trkpt>
      <trkpt lat="46.22116" lon="7.17164">
        <ele>1494.51</ele>
        <time>2016-06-17T12:24:33Z</time>
      </trkpt>
      <trkpt lat="46.22134" lon="7.17168">
        <ele>1504.12</ele>
        <time>2016-06-17T12:24:47Z</time>
      </trkpt>
      <trkpt lat="46.22144" lon="7.17151">
        <ele>1514.21</ele>
        <time>2016-06-17T12:25:03Z</time>
      </trkpt>
      <trkpt lat="46.22147" lon="7.17145">
        <ele>1519.02</ele>
        <time>2016-06-17T12:25:18Z</time>
      </trkpt>
      <trkpt lat="46.2215" lon="7.17142">
        <ele>1524.31</ele>
        <time>2016-06-17T12:25:32Z</time>
      </trkpt>
      <trkpt lat="46.22151" lon="7.17142">
        <ele>1526.71</ele>
        <time>2016-06-17T12:25:45Z</time>
      </trkpt>
      <trkpt lat="46.22158" lon="7.17135">
        <ele>1529.11</ele>
        <time>2016-06-17T12:25:58Z</time>
      </trkpt>
      <trkpt lat="46.22167" lon="7.17124">
        <ele>1533.44</ele>
        <time>2016-06-17T12:26:13Z</time>
      </trkpt>
      <trkpt lat="46.22167" lon="7.17126">
        <ele>1539.69</ele>
        <time>2016-06-17T12:26:31Z</time>
      </trkpt>
      <trkpt lat="46.2217" lon="7.1713">
        <ele>1541.61</ele>
        <time>2016-06-17T12:26:45Z</time>
      </trkpt>
      <trkpt lat="46.22171" lon="7.1713">
        <ele>1543.05</ele>
        <time>2016-06-17T12:26:54Z</time>
      </trkpt>
      <trkpt lat="46.22173" lon="7.17129">
        <ele>1544.01</ele>
        <time>2016-06-17T12:27:07Z</time>
      </trkpt>
      <trkpt lat="46.22175" lon="7.17129">
        <ele>1546.42</ele>
        <time>2016-06-17T12:27:23Z</time>
      </trkpt>
      <trkpt lat="46.22173" lon="7.17131">
        <ele>1550.26</ele>
        <time>2016-06-17T12:27:36Z</time>
      </trkpt>
      <trkpt lat="46.22173" lon="7.17131">
        <ele>1550.74</ele>
        <time>2016-06-17T12:27:38Z</time>
      </trkpt>
      <trkpt lat="46.22173" lon="7.17146">
        <ele>1554.11</ele>
        <time>2016-06-17T12:27:51Z</time>
      </trkpt>
      <trkpt lat="46.22172" lon="7.17159">
        <ele>1558.43</ele>
        <time>2016-06-17T12:28:02Z</time>
      </trkpt>
      <trkpt lat="46.22171" lon="7.17181">
        <ele>1560.84</ele>
        <time>2016-06-17T12:28:16Z</time>
      </trkpt>
      <trkpt lat="46.22175" lon="7.17194">
        <ele>1561.8</ele>
        <time>2016-06-17T12:28:24Z</time>
      </trkpt>
      <trkpt lat="46.22185" lon="7.1719">
        <ele>1563.24</ele>
        <time>2016-06-17T12:28:38Z</time>
      </trkpt>
      <trkpt lat="46.22193" lon="7.17183">
        <ele>1568.53</ele>
        <time>2016-06-17T12:28:54Z</time>
      </trkpt>
      <trkpt lat="46.22199" lon="7.17176">
        <ele>1571.41</ele>
        <time>2016-06-17T12:29:08Z</time>
      </trkpt>
      <trkpt lat="46.22206" lon="7.17168">
        <ele>1574.3</ele>
        <time>2016-06-17T12:29:24Z</time>
      </trkpt>
      <trkpt lat="46.22217" lon="7.17159">
        <ele>1576.7</ele>
        <time>2016-06-17T12:29:43Z</time>
      </trkpt>
      <trkpt lat="46.22221" lon="7.17158">
        <ele>1579.1</ele>
        <time>2016-06-17T12:29:57Z</time>
      </trkpt>
      <trkpt lat="46.22226" lon="7.17152">
        <ele>1580.54</ele>
        <time>2016-06-17T12:30:09Z</time>
      </trkpt>
      <trkpt lat="46.22233" lon="7.17142">
        <ele>1584.87</ele>
        <time>2016-06-17T12:30:27Z</time>
      </trkpt>
      <trkpt lat="46.22239" lon="7.17133">
        <ele>1588.24</ele>
        <time>2016-06-17T12:30:43Z</time>
      </trkpt>
      <trkpt lat="46.22244" lon="7.17125">
        <ele>1592.08</ele>
        <time>2016-06-17T12:30:58Z</time>
      </trkpt>
      <trkpt lat="46.22249" lon="7.17126">
        <ele>1594.48</ele>
        <time>2016-06-17T12:31:13Z</time>
      </trkpt>
      <trkpt lat="46.22255" lon="7.17118">
        <ele>1597.85</ele>
        <time>2016-06-17T12:31:27Z</time>
      </trkpt>
      <trkpt lat="46.22263" lon="7.17112">
        <ele>1601.21</ele>
        <time>2016-06-17T12:31:43Z</time>
      </trkpt>
      <trkpt lat="46.2227" lon="7.17106">
        <ele>1604.1</ele>
        <time>2016-06-17T12:31:59Z</time>
      </trkpt>
      <trkpt lat="46.22278" lon="7.17101">
        <ele>1606.5</ele>
        <time>2016-06-17T12:32:15Z</time>
      </trkpt>
      <trkpt lat="46.22286" lon="7.1709">
        <ele>1610.35</ele>
        <time>2016-06-17T12:32:33Z</time>
      </trkpt>
      <trkpt lat="46.22293" lon="7.17074">
        <ele>1614.67</ele>
        <time>2016-06-17T12:32:50Z</time>
      </trkpt>
      <trkpt lat="46.22295" lon="7.17064">
        <ele>1616.59</ele>
        <time>2016-06-17T12:32:58Z</time>
      </trkpt>
      <trkpt lat="46.22296" lon="7.17044">
        <ele>1616.59</ele>
        <time>2016-06-17T12:33:12Z</time>
      </trkpt>
      <trkpt lat="46.223" lon="7.17033">
        <ele>1619</ele>
        <time>2016-06-17T12:33:27Z</time>
      </trkpt>
      <trkpt lat="46.22302" lon="7.17019">
        <ele>1621.88</ele>
        <time>2016-06-17T12:33:43Z</time>
      </trkpt>
      <trkpt lat="46.22304" lon="7.17008">
        <ele>1625.25</ele>
        <time>2016-06-17T12:33:56Z</time>
      </trkpt>
      <trkpt lat="46.22307" lon="7.16987">
        <ele>1629.09</ele>
        <time>2016-06-17T12:34:13Z</time>
      </trkpt>
      <trkpt lat="46.22309" lon="7.16974">
        <ele>1631.49</ele>
        <time>2016-06-17T12:34:28Z</time>
      </trkpt>
      <trkpt lat="46.22309" lon="7.16963">
        <ele>1632.46</ele>
        <time>2016-06-17T12:34:40Z</time>
      </trkpt>
      <trkpt lat="46.22305" lon="7.16955">
        <ele>1634.38</ele>
        <time>2016-06-17T12:34:52Z</time>
      </trkpt>
      <trkpt lat="46.22297" lon="7.16945">
        <ele>1637.74</ele>
        <time>2016-06-17T12:35:09Z</time>
      </trkpt>
      <trkpt lat="46.22291" lon="7.16936">
        <ele>1642.07</ele>
        <time>2016-06-17T12:35:26Z</time>
      </trkpt>
      <trkpt lat="46.22287" lon="7.16929">
        <ele>1646.4</ele>
        <time>2016-06-17T12:35:41Z</time>
      </trkpt>
      <trkpt lat="46.22288" lon="7.16928">
        <ele>1646.4</ele>
        <time>2016-06-17T12:35:53Z</time>
      </trkpt>
      <trkpt lat="46.22295" lon="7.16928">
        <ele>1649.76</ele>
        <time>2016-06-17T12:36:08Z</time>
      </trkpt>
      <trkpt lat="46.22303" lon="7.16929">
        <ele>1652.64</ele>
        <time>2016-06-17T12:36:23Z</time>
      </trkpt>
      <trkpt lat="46.22315" lon="7.16925">
        <ele>1655.53</ele>
        <time>2016-06-17T12:36:40Z</time>
      </trkpt>
      <trkpt lat="46.22326" lon="7.16921">
        <ele>1658.41</ele>
        <time>2016-06-17T12:36:57Z</time>
      </trkpt>
      <trkpt lat="46.22334" lon="7.16919">
        <ele>1661.78</ele>
        <time>2016-06-17T12:37:12Z</time>
      </trkpt>
      <trkpt lat="46.22344" lon="7.16909">
        <ele>1664.66</ele>
        <time>2016-06-17T12:37:29Z</time>
      </trkpt>
      <trkpt lat="46.22352" lon="7.16901">
        <ele>1668.02</ele>
        <time>2016-06-17T12:37:44Z</time>
      </trkpt>
      <trkpt lat="46.2236" lon="7.16896">
        <ele>1671.39</ele>
        <time>2016-06-17T12:37:59Z</time>
      </trkpt>
      <trkpt lat="46.22369" lon="7.16883">
        <ele>1674.27</ele>
        <time>2016-06-17T12:38:17Z</time>
      </trkpt>
      <trkpt lat="46.22377" lon="7.16871">
        <ele>1675.72</ele>
        <time>2016-06-17T12:38:32Z</time>
      </trkpt>
      <trkpt lat="46.22383" lon="7.16858">
        <ele>1681</ele>
        <time>2016-06-17T12:38:50Z</time>
      </trkpt>
      <trkpt lat="46.2239" lon="7.16842">
        <ele>1684.37</ele>
        <time>2016-06-17T12:39:08Z</time>
      </trkpt>
      <trkpt lat="46.22391" lon="7.16833">
        <ele>1685.81</ele>
        <time>2016-06-17T12:39:28Z</time>
      </trkpt>
      <trkpt lat="46.22389" lon="7.16832">
        <ele>1685.81</ele>
        <time>2016-06-17T12:39:40Z</time>
      </trkpt>
      <trkpt lat="46.2239" lon="7.16833">
        <ele>1685.81</ele>
        <time>2016-06-17T12:39:56Z</time>
      </trkpt>
      <trkpt lat="46.22393" lon="7.16826">
        <ele>1686.29</ele>
        <time>2016-06-17T12:40:08Z</time>
      </trkpt>
      <trkpt lat="46.22397" lon="7.16819">
        <ele>1687.73</ele>
        <time>2016-06-17T12:40:22Z</time>
      </trkpt>
      <trkpt lat="46.22401" lon="7.16826">
        <ele>1687.73</ele>
        <time>2016-06-17T12:40:34Z</time>
      </trkpt>
      <trkpt lat="46.22407" lon="7.16831">
        <ele>1688.21</ele>
        <time>2016-06-17T12:40:47Z</time>
      </trkpt>
      <trkpt lat="46.22412" lon="7.16836">
        <ele>1689.17</ele>
        <time>2016-06-17T12:41:00Z</time>
      </trkpt>
      <trkpt lat="46.22417" lon="7.16844">
        <ele>1689.17</ele>
        <time>2016-06-17T12:41:14Z</time>
      </trkpt>
      <trkpt lat="46.22417" lon="7.16855">
        <ele>1690.62</ele>
        <time>2016-06-17T12:41:30Z</time>
      </trkpt>
      <trkpt lat="46.22412" lon="7.16868">
        <ele>1692.06</ele>
        <time>2016-06-17T12:41:41Z</time>
      </trkpt>
      <trkpt lat="46.22414" lon="7.16891">
        <ele>1693.98</ele>
        <time>2016-06-17T12:41:54Z</time>
      </trkpt>
      <trkpt lat="46.22416" lon="7.16896">
        <ele>1695.42</ele>
        <time>2016-06-17T12:42:07Z</time>
      </trkpt>
      <trkpt lat="46.22415" lon="7.16912">
        <ele>1697.83</ele>
        <time>2016-06-17T12:42:20Z</time>
      </trkpt>
      <trkpt lat="46.2242" lon="7.16917">
        <ele>1699.75</ele>
        <time>2016-06-17T12:42:31Z</time>
      </trkpt>
      <trkpt lat="46.22426" lon="7.16913">
        <ele>1704.07</ele>
        <time>2016-06-17T12:42:47Z</time>
      </trkpt>
      <trkpt lat="46.22435" lon="7.16906">
        <ele>1705.04</ele>
        <time>2016-06-17T12:43:02Z</time>
      </trkpt>
      <trkpt lat="46.22439" lon="7.16899">
        <ele>1709.84</ele>
        <time>2016-06-17T12:43:17Z</time>
      </trkpt>
      <trkpt lat="46.22443" lon="7.16894">
        <ele>1717.05</ele>
        <time>2016-06-17T12:43:30Z</time>
      </trkpt>
      <trkpt lat="46.22446" lon="7.1689">
        <ele>1726.18</ele>
        <time>2016-06-17T12:43:45Z</time>
      </trkpt>
      <trkpt lat="46.22449" lon="7.16881">
        <ele>1729.55</ele>
        <time>2016-06-17T12:43:59Z</time>
      </trkpt>
      <trkpt lat="46.22455" lon="7.16872">
        <ele>1731.95</ele>
        <time>2016-06-17T12:44:14Z</time>
      </trkpt>
      <trkpt lat="46.22461" lon="7.16864">
        <ele>1731.47</ele>
        <time>2016-06-17T12:44:31Z</time>
      </trkpt>
      <trkpt lat="46.22464" lon="7.16857">
        <ele>1735.32</ele>
        <time>2016-06-17T12:44:45Z</time>
      </trkpt>
      <trkpt lat="46.2247" lon="7.16851">
        <ele>1739.64</ele>
        <time>2016-06-17T12:45:00Z</time>
      </trkpt>
      <trkpt lat="46.22475" lon="7.16848">
        <ele>1743.49</ele>
        <time>2016-06-17T12:45:14Z</time>
      </trkpt>
      <trkpt lat="46.22486" lon="7.1684">
        <ele>1748.78</ele>
        <time>2016-06-17T12:45:28Z</time>
      </trkpt>
      <trkpt lat="46.22488" lon="7.16838">
        <ele>1749.26</ele>
        <time>2016-06-17T12:45:31Z</time>
      </trkpt>
      <trkpt lat="46.22497" lon="7.16833">
        <ele>1752.62</ele>
        <time>2016-06-17T12:45:45Z</time>
      </trkpt>
      <trkpt lat="46.22498" lon="7.16833">
        <ele>1753.1</ele>
        <time>2016-06-17T12:45:46Z</time>
      </trkpt>
      <trkpt lat="46.22507" lon="7.16827">
        <ele>1756.95</ele>
        <time>2016-06-17T12:45:59Z</time>
      </trkpt>
      <trkpt lat="46.22516" lon="7.16824">
        <ele>1757.43</ele>
        <time>2016-06-17T12:46:06Z</time>
      </trkpt>
      <trkpt lat="46.22526" lon="7.16819">
        <ele>1759.83</ele>
        <time>2016-06-17T12:46:17Z</time>
      </trkpt>
      <trkpt lat="46.22535" lon="7.16816">
        <ele>1761.75</ele>
        <time>2016-06-17T12:46:30Z</time>
      </trkpt>
      <trkpt lat="46.22542" lon="7.16811">
        <ele>1765.12</ele>
        <time>2016-06-17T12:46:44Z</time>
      </trkpt>
      <trkpt lat="46.22547" lon="7.16804">
        <ele>1767.04</ele>
        <time>2016-06-17T12:46:54Z</time>
      </trkpt>
      <trkpt lat="46.22551" lon="7.16793">
        <ele>1769.44</ele>
        <time>2016-06-17T12:47:08Z</time>
      </trkpt>
      <trkpt lat="46.22553" lon="7.16787">
        <ele>1768.48</ele>
        <time>2016-06-17T12:47:18Z</time>
      </trkpt>
      <trkpt lat="46.2256" lon="7.16785">
        <ele>1769.44</ele>
        <time>2016-06-17T12:47:31Z</time>
      </trkpt>
      <trkpt lat="46.22567" lon="7.16782">
        <ele>1771.85</ele>
        <time>2016-06-17T12:47:43Z</time>
      </trkpt>
      <trkpt lat="46.22573" lon="7.1678">
        <ele>1773.77</ele>
        <time>2016-06-17T12:47:54Z</time>
      </trkpt>
      <trkpt lat="46.22583" lon="7.16773">
        <ele>1775.69</ele>
        <time>2016-06-17T12:48:07Z</time>
      </trkpt>
      <trkpt lat="46.2259" lon="7.16774">
        <ele>1779.06</ele>
        <time>2016-06-17T12:48:18Z</time>
      </trkpt>
      <trkpt lat="46.22594" lon="7.16762">
        <ele>1780.98</ele>
        <time>2016-06-17T12:48:31Z</time>
      </trkpt>
      <trkpt lat="46.22593" lon="7.1676">
        <ele>1781.46</ele>
        <time>2016-06-17T12:48:33Z</time>
      </trkpt>
      <trkpt lat="46.22593" lon="7.16745">
        <ele>1781.94</ele>
        <time>2016-06-17T12:48:48Z</time>
      </trkpt>
      <trkpt lat="46.22593" lon="7.16739">
        <ele>1782.42</ele>
        <time>2016-06-17T12:48:56Z</time>
      </trkpt>
      <trkpt lat="46.22599" lon="7.16727">
        <ele>1782.9</ele>
        <time>2016-06-17T12:49:11Z</time>
      </trkpt>
      <trkpt lat="46.22604" lon="7.16717">
        <ele>1787.71</ele>
        <time>2016-06-17T12:49:24Z</time>
      </trkpt>
      <trkpt lat="46.22606" lon="7.16716">
        <ele>1788.19</ele>
        <time>2016-06-17T12:49:26Z</time>
      </trkpt>
      <trkpt lat="46.22611" lon="7.16704">
        <ele>1790.11</ele>
        <time>2016-06-17T12:49:40Z</time>
      </trkpt>
      <trkpt lat="46.22616" lon="7.16693">
        <ele>1792.03</ele>
        <time>2016-06-17T12:49:54Z</time>
      </trkpt>
      <trkpt lat="46.22622" lon="7.1668">
        <ele>1793.96</ele>
        <time>2016-06-17T12:50:08Z</time>
      </trkpt>
      <trkpt lat="46.22625" lon="7.1667">
        <ele>1796.84</ele>
        <time>2016-06-17T12:50:22Z</time>
      </trkpt>
      <trkpt lat="46.22631" lon="7.16664">
        <ele>1800.21</ele>
        <time>2016-06-17T12:50:35Z</time>
      </trkpt>
      <trkpt lat="46.22632" lon="7.16663">
        <ele>1800.69</ele>
        <time>2016-06-17T12:50:36Z</time>
      </trkpt>
      <trkpt lat="46.22638" lon="7.16657">
        <ele>1801.65</ele>
        <time>2016-06-17T12:50:49Z</time>
      </trkpt>
      <trkpt lat="46.22644" lon="7.16654">
        <ele>1805.01</ele>
        <time>2016-06-17T12:51:02Z</time>
      </trkpt>
      <trkpt lat="46.22649" lon="7.16654">
        <ele>1805.97</ele>
        <time>2016-06-17T12:51:15Z</time>
      </trkpt>
      <trkpt lat="46.22653" lon="7.16654">
        <ele>1806.94</ele>
        <time>2016-06-17T12:51:27Z</time>
      </trkpt>
      <trkpt lat="46.22661" lon="7.16644">
        <ele>1808.86</ele>
        <time>2016-06-17T12:51:40Z</time>
      </trkpt>
      <trkpt lat="46.22663" lon="7.16638">
        <ele>1809.34</ele>
        <time>2016-06-17T12:51:45Z</time>
      </trkpt>
      <trkpt lat="46.22674" lon="7.16628">
        <ele>1810.3</ele>
        <time>2016-06-17T12:52:01Z</time>
      </trkpt>
      <trkpt lat="46.22685" lon="7.1662">
        <ele>1811.74</ele>
        <time>2016-06-17T12:52:16Z</time>
      </trkpt>
      <trkpt lat="46.22693" lon="7.16607">
        <ele>1814.63</ele>
        <time>2016-06-17T12:52:33Z</time>
      </trkpt>
      <trkpt lat="46.22695" lon="7.16604">
        <ele>1815.59</ele>
        <time>2016-06-17T12:52:36Z</time>
      </trkpt>
      <trkpt lat="46.22701" lon="7.16591">
        <ele>1817.51</ele>
        <time>2016-06-17T12:52:51Z</time>
      </trkpt>
      <trkpt lat="46.22707" lon="7.16584">
        <ele>1819.91</ele>
        <time>2016-06-17T12:53:02Z</time>
      </trkpt>
      <trkpt lat="46.22718" lon="7.16573">
        <ele>1821.84</ele>
        <time>2016-06-17T12:53:17Z</time>
      </trkpt>
      <trkpt lat="46.22726" lon="7.16562">
        <ele>1824.72</ele>
        <time>2016-06-17T12:53:33Z</time>
      </trkpt>
      <trkpt lat="46.22733" lon="7.16551">
        <ele>1829.05</ele>
        <time>2016-06-17T12:53:47Z</time>
      </trkpt>
      <trkpt lat="46.22737" lon="7.16542">
        <ele>1830.97</ele>
        <time>2016-06-17T12:54:01Z</time>
      </trkpt>
      <trkpt lat="46.22741" lon="7.16539">
        <ele>1831.93</ele>
        <time>2016-06-17T12:54:07Z</time>
      </trkpt>
      <trkpt lat="46.22747" lon="7.16525">
        <ele>1832.89</ele>
        <time>2016-06-17T12:54:21Z</time>
      </trkpt>
      <trkpt lat="46.22752" lon="7.16518">
        <ele>1836.26</ele>
        <time>2016-06-17T12:54:35Z</time>
      </trkpt>
      <trkpt lat="46.22758" lon="7.16511">
        <ele>1838.18</ele>
        <time>2016-06-17T12:54:48Z</time>
      </trkpt>
      <trkpt lat="46.22759" lon="7.16501">
        <ele>1839.62</ele>
        <time>2016-06-17T12:55:00Z</time>
      </trkpt>
      <trkpt lat="46.22762" lon="7.16497">
        <ele>1842.5</ele>
        <time>2016-06-17T12:55:11Z</time>
      </trkpt>
      <trkpt lat="46.22766" lon="7.1649">
        <ele>1843.47</ele>
        <time>2016-06-17T12:55:24Z</time>
      </trkpt>
      <trkpt lat="46.22773" lon="7.16483">
        <ele>1844.91</ele>
        <time>2016-06-17T12:55:36Z</time>
      </trkpt>
      <trkpt lat="46.22777" lon="7.16473">
        <ele>1847.31</ele>
        <time>2016-06-17T12:55:47Z</time>
      </trkpt>
      <trkpt lat="46.22785" lon="7.16466">
        <ele>1850.19</ele>
        <time>2016-06-17T12:55:59Z</time>
      </trkpt>
      <trkpt lat="46.22791" lon="7.16459">
        <ele>1852.12</ele>
        <time>2016-06-17T12:56:11Z</time>
      </trkpt>
      <trkpt lat="46.22797" lon="7.16451">
        <ele>1853.56</ele>
        <time>2016-06-17T12:56:22Z</time>
      </trkpt>
      <trkpt lat="46.22798" lon="7.16446">
        <ele>1854.04</ele>
        <time>2016-06-17T12:56:33Z</time>
      </trkpt>
      <trkpt lat="46.228" lon="7.16435">
        <ele>1856.44</ele>
        <time>2016-06-17T12:56:46Z</time>
      </trkpt>
      <trkpt lat="46.228" lon="7.16425">
        <ele>1857.4</ele>
        <time>2016-06-17T12:56:59Z</time>
      </trkpt>
      <trkpt lat="46.22799" lon="7.16419">
        <ele>1859.81</ele>
        <time>2016-06-17T12:57:13Z</time>
      </trkpt>
      <trkpt lat="46.22804" lon="7.16416">
        <ele>1860.77</ele>
        <time>2016-06-17T12:57:23Z</time>
      </trkpt>
      <trkpt lat="46.2281" lon="7.16409">
        <ele>1864.13</ele>
        <time>2016-06-17T12:57:36Z</time>
      </trkpt>
      <trkpt lat="46.22814" lon="7.16406">
        <ele>1868.46</ele>
        <time>2016-06-17T12:57:51Z</time>
      </trkpt>
      <trkpt lat="46.22815" lon="7.16406">
        <ele>1868.46</ele>
        <time>2016-06-17T12:57:52Z</time>
      </trkpt>
      <trkpt lat="46.22818" lon="7.16397">
        <ele>1869.9</ele>
        <time>2016-06-17T12:58:05Z</time>
      </trkpt>
      <trkpt lat="46.2282" lon="7.16395">
        <ele>1871.34</ele>
        <time>2016-06-17T12:58:16Z</time>
      </trkpt>
      <trkpt lat="46.2282" lon="7.16395">
        <ele>1871.82</ele>
        <time>2016-06-17T12:58:20Z</time>
      </trkpt>
      <trkpt lat="46.22813" lon="7.16385">
        <ele>1873.75</ele>
        <time>2016-06-17T12:58:33Z</time>
      </trkpt>
      <trkpt lat="46.22814" lon="7.16382">
        <ele>1872.79</ele>
        <time>2016-06-17T12:58:46Z</time>
      </trkpt>
      <trkpt lat="46.22809" lon="7.16377">
        <ele>1876.63</ele>
        <time>2016-06-17T12:58:57Z</time>
      </trkpt>
      <trkpt lat="46.22796" lon="7.16375">
        <ele>1880.48</ele>
        <time>2016-06-17T12:59:10Z</time>
      </trkpt>
      <trkpt lat="46.22792" lon="7.16377">
        <ele>1881.44</ele>
        <time>2016-06-17T12:59:13Z</time>
      </trkpt>
      <trkpt lat="46.22774" lon="7.16379">
        <ele>1887.21</ele>
        <time>2016-06-17T12:59:29Z</time>
      </trkpt>
      <trkpt lat="46.22762" lon="7.16383">
        <ele>1892.49</ele>
        <time>2016-06-17T12:59:42Z</time>
      </trkpt>
      <trkpt lat="46.22748" lon="7.16383">
        <ele>1900.18</ele>
        <time>2016-06-17T12:59:56Z</time>
      </trkpt>
      <trkpt lat="46.22747" lon="7.16383">
        <ele>1900.66</ele>
        <time>2016-06-17T12:59:57Z</time>
      </trkpt>
      <trkpt lat="46.22735" lon="7.16384">
        <ele>1904.03</ele>
        <time>2016-06-17T13:00:13Z</time>
      </trkpt>
      <trkpt lat="46.22732" lon="7.16384">
        <ele>1904.51</ele>
        <time>2016-06-17T13:00:18Z</time>
      </trkpt>
      <trkpt lat="46.22723" lon="7.16387">
        <ele>1906.91</ele>
        <time>2016-06-17T13:00:27Z</time>
      </trkpt>
      <trkpt lat="46.2271" lon="7.1639">
        <ele>1907.39</ele>
        <time>2016-06-17T13:00:41Z</time>
      </trkpt>
      <trkpt lat="46.22707" lon="7.16391">
        <ele>1908.35</ele>
        <time>2016-06-17T13:00:44Z</time>
      </trkpt>
      <trkpt lat="46.22696" lon="7.16391">
        <ele>1911.24</ele>
        <time>2016-06-17T13:00:57Z</time>
      </trkpt>
      <trkpt lat="46.22692" lon="7.16392">
        <ele>1912.68</ele>
        <time>2016-06-17T13:01:01Z</time>
      </trkpt>
      <trkpt lat="46.22691" lon="7.16392">
        <ele>1913.16</ele>
        <time>2016-06-17T13:01:03Z</time>
      </trkpt>
      <trkpt lat="46.22675" lon="7.16394">
        <ele>1920.85</ele>
        <time>2016-06-17T13:01:19Z</time>
      </trkpt>
      <trkpt lat="46.2267" lon="7.16399">
        <ele>1910.28</ele>
        <time>2016-06-17T13:01:34Z</time>
      </trkpt>
      <trkpt lat="46.22656" lon="7.16402">
        <ele>1912.2</ele>
        <time>2016-06-17T13:01:46Z</time>
      </trkpt>
      <trkpt lat="46.2265" lon="7.16402">
        <ele>1914.6</ele>
        <time>2016-06-17T13:01:51Z</time>
      </trkpt>
      <trkpt lat="46.22645" lon="7.16405">
        <ele>1915.56</ele>
        <time>2016-06-17T13:01:56Z</time>
      </trkpt>
      <trkpt lat="46.22635" lon="7.16404">
        <ele>1919.41</ele>
        <time>2016-06-17T13:02:09Z</time>
      </trkpt>
      <trkpt lat="46.22633" lon="7.16405">
        <ele>1917.01</ele>
        <time>2016-06-17T13:02:22Z</time>
      </trkpt>
      <trkpt lat="46.22633" lon="7.16405">
        <ele>1916.04</ele>
        <time>2016-06-17T13:02:25Z</time>
      </trkpt>
      <trkpt lat="46.22619" lon="7.16408">
        <ele>1914.12</ele>
        <time>2016-06-17T13:02:41Z</time>
      </trkpt>
      <trkpt lat="46.22619" lon="7.16408">
        <ele>1913.16</ele>
        <time>2016-06-17T13:02:42Z</time>
      </trkpt>
      <trkpt lat="46.22617" lon="7.16401">
        <ele>1909.32</ele>
        <time>2016-06-17T13:02:48Z</time>
      </trkpt>
      <trkpt lat="46.22617" lon="7.16397">
        <ele>1907.87</ele>
        <time>2016-06-17T13:02:51Z</time>
      </trkpt>
      <trkpt lat="46.22613" lon="7.1639">
        <ele>1906.43</ele>
        <time>2016-06-17T13:02:58Z</time>
      </trkpt>
      <trkpt lat="46.22608" lon="7.16388">
        <ele>1906.43</ele>
        <time>2016-06-17T13:03:11Z</time>
      </trkpt>
      <trkpt lat="46.22601" lon="7.16386">
        <ele>1907.39</ele>
        <time>2016-06-17T13:03:20Z</time>
      </trkpt>
      <trkpt lat="46.22598" lon="7.16385">
        <ele>1907.39</ele>
        <time>2016-06-17T13:03:33Z</time>
      </trkpt>
      <trkpt lat="46.22599" lon="7.16384">
        <ele>1905.95</ele>
        <time>2016-06-17T13:04:00Z</time>
      </trkpt>
      <trkpt lat="46.22601" lon="7.16384">
        <ele>1904.99</ele>
        <time>2016-06-17T13:04:28Z</time>
      </trkpt>
      <trkpt lat="46.226" lon="7.16384">
        <ele>1905.95</ele>
        <time>2016-06-17T13:04:48Z</time>
      </trkpt>
      <trkpt lat="46.22598" lon="7.16384">
        <ele>1905.95</ele>
        <time>2016-06-17T13:05:21Z</time>
      </trkpt>
      <trkpt lat="46.22597" lon="7.16384">
        <ele>1905.95</ele>
        <time>2016-06-17T13:05:23Z</time>
      </trkpt>
      <trkpt lat="46.22589" lon="7.16388">
        <ele>1906.43</ele>
        <time>2016-06-17T13:05:29Z</time>
      </trkpt>
      <trkpt lat="46.22583" lon="7.16386">
        <ele>1906.91</ele>
        <time>2016-06-17T13:05:34Z</time>
      </trkpt>
      <trkpt lat="46.22571" lon="7.16385">
        <ele>1910.28</ele>
        <time>2016-06-17T13:05:41Z</time>
      </trkpt>
      <trkpt lat="46.22569" lon="7.16386">
        <ele>1911.24</ele>
        <time>2016-06-17T13:05:43Z</time>
      </trkpt>
      <trkpt lat="46.22554" lon="7.16387">
        <ele>1915.08</ele>
        <time>2016-06-17T13:05:59Z</time>
      </trkpt>
      <trkpt lat="46.22535" lon="7.16381">
        <ele>1911.72</ele>
        <time>2016-06-17T13:06:17Z</time>
      </trkpt>
      <trkpt lat="46.22537" lon="7.16366">
        <ele>1909.8</ele>
        <time>2016-06-17T13:06:30Z</time>
      </trkpt>
      <trkpt lat="46.22534" lon="7.16355">
        <ele>1906.91</ele>
        <time>2016-06-17T13:06:41Z</time>
      </trkpt>
      <trkpt lat="46.22534" lon="7.16346">
        <ele>1909.8</ele>
        <time>2016-06-17T13:06:54Z</time>
      </trkpt>
      <trkpt lat="46.22535" lon="7.16339">
        <ele>1911.24</ele>
        <time>2016-06-17T13:07:05Z</time>
      </trkpt>
      <trkpt lat="46.22537" lon="7.16334">
        <ele>1910.76</ele>
        <time>2016-06-17T13:07:18Z</time>
      </trkpt>
      <trkpt lat="46.22538" lon="7.16326">
        <ele>1905.47</ele>
        <time>2016-06-17T13:07:30Z</time>
      </trkpt>
      <trkpt lat="46.22537" lon="7.16317">
        <ele>1907.87</ele>
        <time>2016-06-17T13:07:44Z</time>
      </trkpt>
      <trkpt lat="46.22535" lon="7.16312">
        <ele>1897.3</ele>
        <time>2016-06-17T13:07:56Z</time>
      </trkpt>
      <trkpt lat="46.22536" lon="7.16312">
        <ele>1897.3</ele>
        <time>2016-06-17T13:08:00Z</time>
      </trkpt>
      <trkpt lat="46.22538" lon="7.16306">
        <ele>1897.78</ele>
        <time>2016-06-17T13:08:06Z</time>
      </trkpt>
      <trkpt lat="46.22528" lon="7.16289">
        <ele>1884.8</ele>
        <time>2016-06-17T13:08:18Z</time>
      </trkpt>
      <trkpt lat="46.22525" lon="7.16297">
        <ele>1865.58</ele>
        <time>2016-06-17T13:08:31Z</time>
      </trkpt>
      <trkpt lat="46.22528" lon="7.16302">
        <ele>1865.09</ele>
        <time>2016-06-17T13:08:44Z</time>
      </trkpt>
      <trkpt lat="46.22529" lon="7.163">
        <ele>1864.61</ele>
        <time>2016-06-17T13:08:59Z</time>
      </trkpt>
      <trkpt lat="46.22532" lon="7.16284">
        <ele>1865.58</ele>
        <time>2016-06-17T13:09:12Z</time>
      </trkpt>
      <trkpt lat="46.22537" lon="7.16271">
        <ele>1871.34</ele>
        <time>2016-06-17T13:09:25Z</time>
      </trkpt>
      <trkpt lat="46.2254" lon="7.16261">
        <ele>1877.59</ele>
        <time>2016-06-17T13:09:34Z</time>
      </trkpt>
      <trkpt lat="46.22541" lon="7.16251">
        <ele>1882.4</ele>
        <time>2016-06-17T13:09:39Z</time>
      </trkpt>
      <trkpt lat="46.22552" lon="7.16247">
        <ele>1892.97</ele>
        <time>2016-06-17T13:09:50Z</time>
      </trkpt>
      <trkpt lat="46.22557" lon="7.16255">
        <ele>1917.97</ele>
        <time>2016-06-17T13:10:09Z</time>
      </trkpt>
      <trkpt lat="46.22556" lon="7.16258">
        <ele>1933.83</ele>
        <time>2016-06-17T13:10:34Z</time>
      </trkpt>
      <trkpt lat="46.22558" lon="7.16257">
        <ele>1936.23</ele>
        <time>2016-06-17T13:10:45Z</time>
      </trkpt>
      <trkpt lat="46.22557" lon="7.16249">
        <ele>1936.71</ele>
        <time>2016-06-17T13:10:57Z</time>
      </trkpt>
      <trkpt lat="46.22557" lon="7.16243">
        <ele>1941.04</ele>
        <time>2016-06-17T13:11:07Z</time>
      </trkpt>
      <trkpt lat="46.22562" lon="7.16237">
        <ele>1947.77</ele>
        <time>2016-06-17T13:11:20Z</time>
      </trkpt>
      <trkpt lat="46.22561" lon="7.16232">
        <ele>1953.54</ele>
        <time>2016-06-17T13:11:31Z</time>
      </trkpt>
      <trkpt lat="46.22567" lon="7.16224">
        <ele>1959.3</ele>
        <time>2016-06-17T13:11:45Z</time>
      </trkpt>
      <trkpt lat="46.22565" lon="7.16214">
        <ele>1964.11</ele>
        <time>2016-06-17T13:11:59Z</time>
      </trkpt>
      <trkpt lat="46.22565" lon="7.16213">
        <ele>1964.59</ele>
        <time>2016-06-17T13:12:00Z</time>
      </trkpt>
      <trkpt lat="46.22567" lon="7.16204">
        <ele>1967.96</ele>
        <time>2016-06-17T13:12:14Z</time>
      </trkpt>
      <trkpt lat="46.22568" lon="7.16194">
        <ele>1971.8</ele>
        <time>2016-06-17T13:12:27Z</time>
      </trkpt>
      <trkpt lat="46.22568" lon="7.16185">
        <ele>1974.2</ele>
        <time>2016-06-17T13:12:38Z</time>
      </trkpt>
      <trkpt lat="46.2257" lon="7.16178">
        <ele>1976.61</ele>
        <time>2016-06-17T13:12:51Z</time>
      </trkpt>
      <trkpt lat="46.22574" lon="7.16171">
        <ele>1979.49</ele>
        <time>2016-06-17T13:13:04Z</time>
      </trkpt>
      <trkpt lat="46.2257" lon="7.1616">
        <ele>1981.41</ele>
        <time>2016-06-17T13:13:17Z</time>
      </trkpt>
      <trkpt lat="46.22573" lon="7.16152">
        <ele>1984.3</ele>
        <time>2016-06-17T13:13:30Z</time>
      </trkpt>
      <trkpt lat="46.22581" lon="7.16143">
        <ele>1987.18</ele>
        <time>2016-06-17T13:13:44Z</time>
      </trkpt>
      <trkpt lat="46.22585" lon="7.16134">
        <ele>1990.07</ele>
        <time>2016-06-17T13:13:57Z</time>
      </trkpt>
      <trkpt lat="46.22589" lon="7.16126">
        <ele>1991.99</ele>
        <time>2016-06-17T13:14:09Z</time>
      </trkpt>
      <trkpt lat="46.22593" lon="7.16118">
        <ele>1994.39</ele>
        <time>2016-06-17T13:14:24Z</time>
      </trkpt>
      <trkpt lat="46.22602" lon="7.16111">
        <ele>1995.83</ele>
        <time>2016-06-17T13:14:39Z</time>
      </trkpt>
      <trkpt lat="46.22607" lon="7.16109">
        <ele>1998.72</ele>
        <time>2016-06-17T13:14:51Z</time>
      </trkpt>
      <trkpt lat="46.22613" lon="7.16108">
        <ele>2000.16</ele>
        <time>2016-06-17T13:15:05Z</time>
      </trkpt>
      <trkpt lat="46.22621" lon="7.16103">
        <ele>2001.6</ele>
        <time>2016-06-17T13:15:18Z</time>
      </trkpt>
      <trkpt lat="46.22623" lon="7.16102">
        <ele>2001.6</ele>
        <time>2016-06-17T13:15:20Z</time>
      </trkpt>
      <trkpt lat="46.22637" lon="7.16092">
        <ele>2003.04</ele>
        <time>2016-06-17T13:15:35Z</time>
      </trkpt>
      <trkpt lat="46.22638" lon="7.16092">
        <ele>2003.04</ele>
        <time>2016-06-17T13:15:36Z</time>
      </trkpt>
      <trkpt lat="46.22654" lon="7.16082">
        <ele>2002.56</ele>
        <time>2016-06-17T13:15:50Z</time>
      </trkpt>
      <trkpt lat="46.22663" lon="7.16062">
        <ele>2002.56</ele>
        <time>2016-06-17T13:16:07Z</time>
      </trkpt>
      <trkpt lat="46.22665" lon="7.16049">
        <ele>2003.04</ele>
        <time>2016-06-17T13:16:21Z</time>
      </trkpt>
      <trkpt lat="46.22665" lon="7.16046">
        <ele>2003.04</ele>
        <time>2016-06-17T13:16:23Z</time>
      </trkpt>
      <trkpt lat="46.22664" lon="7.16037">
        <ele>2004.97</ele>
        <time>2016-06-17T13:16:38Z</time>
      </trkpt>
      <trkpt lat="46.22665" lon="7.16037">
        <ele>2004.97</ele>
        <time>2016-06-17T13:17:03Z</time>
      </trkpt>
      <trkpt lat="46.22664" lon="7.16029">
        <ele>2005.93</ele>
        <time>2016-06-17T13:17:09Z</time>
      </trkpt>
      <trkpt lat="46.22663" lon="7.16015">
        <ele>2006.89</ele>
        <time>2016-06-17T13:17:20Z</time>
      </trkpt>
      <trkpt lat="46.22666" lon="7.16007">
        <ele>2005.45</ele>
        <time>2016-06-17T13:17:35Z</time>
      </trkpt>
      <trkpt lat="46.22663" lon="7.15995">
        <ele>2005.45</ele>
        <time>2016-06-17T13:17:49Z</time>
      </trkpt>
      <trkpt lat="46.2266" lon="7.15982">
        <ele>2006.41</ele>
        <time>2016-06-17T13:18:01Z</time>
      </trkpt>
      <trkpt lat="46.22659" lon="7.15977">
        <ele>2007.85</ele>
        <time>2016-06-17T13:18:07Z</time>
      </trkpt>
      <trkpt lat="46.22657" lon="7.15971">
        <ele>2007.37</ele>
        <time>2016-06-17T13:18:12Z</time>
      </trkpt>
      <trkpt lat="46.22655" lon="7.15964">
        <ele>2006.89</ele>
        <time>2016-06-17T13:18:17Z</time>
      </trkpt>
      <trkpt lat="46.22659" lon="7.15941">
        <ele>2008.33</ele>
        <time>2016-06-17T13:18:35Z</time>
      </trkpt>
      <trkpt lat="46.22661" lon="7.15926">
        <ele>2008.81</ele>
        <time>2016-06-17T13:18:46Z</time>
      </trkpt>
      <trkpt lat="46.2266" lon="7.15912">
        <ele>2009.29</ele>
        <time>2016-06-17T13:18:58Z</time>
      </trkpt>
      <trkpt lat="46.2266" lon="7.15906">
        <ele>2009.29</ele>
        <time>2016-06-17T13:19:07Z</time>
      </trkpt>
      <trkpt lat="46.2266" lon="7.15903">
        <ele>2009.77</ele>
        <time>2016-06-17T13:19:09Z</time>
      </trkpt>
      <trkpt lat="46.22665" lon="7.15884">
        <ele>2012.18</ele>
        <time>2016-06-17T13:19:24Z</time>
      </trkpt>
      <trkpt lat="46.22666" lon="7.15879">
        <ele>2011.7</ele>
        <time>2016-06-17T13:19:28Z</time>
      </trkpt>
      <trkpt lat="46.22671" lon="7.15864">
        <ele>2015.06</ele>
        <time>2016-06-17T13:19:41Z</time>
      </trkpt>
      <trkpt lat="46.22678" lon="7.1585">
        <ele>2016.02</ele>
        <time>2016-06-17T13:19:53Z</time>
      </trkpt>
      <trkpt lat="46.22684" lon="7.15834">
        <ele>2016.02</ele>
        <time>2016-06-17T13:20:06Z</time>
      </trkpt>
      <trkpt lat="46.22688" lon="7.15828">
        <ele>2016.02</ele>
        <time>2016-06-17T13:20:13Z</time>
      </trkpt>
      <trkpt lat="46.22694" lon="7.15816">
        <ele>2017.46</ele>
        <time>2016-06-17T13:20:27Z</time>
      </trkpt>
      <trkpt lat="46.22699" lon="7.158">
        <ele>2017.94</ele>
        <time>2016-06-17T13:20:41Z</time>
      </trkpt>
      <trkpt lat="46.22701" lon="7.15788">
        <ele>2018.43</ele>
        <time>2016-06-17T13:20:52Z</time>
      </trkpt>
      <trkpt lat="46.22702" lon="7.15772">
        <ele>2019.87</ele>
        <time>2016-06-17T13:21:07Z</time>
      </trkpt>
      <trkpt lat="46.22702" lon="7.15771">
        <ele>2019.39</ele>
        <time>2016-06-17T13:21:08Z</time>
      </trkpt>
      <trkpt lat="46.22706" lon="7.1576">
        <ele>2022.27</ele>
        <time>2016-06-17T13:21:22Z</time>
      </trkpt>
      <trkpt lat="46.2271" lon="7.15746">
        <ele>2025.15</ele>
        <time>2016-06-17T13:21:36Z</time>
      </trkpt>
      <trkpt lat="46.22714" lon="7.15729">
        <ele>2026.6</ele>
        <time>2016-06-17T13:21:49Z</time>
      </trkpt>
      <trkpt lat="46.22714" lon="7.15728">
        <ele>2026.6</ele>
        <time>2016-06-17T13:21:50Z</time>
      </trkpt>
      <trkpt lat="46.22715" lon="7.15725">
        <ele>2026.6</ele>
        <time>2016-06-17T13:21:52Z</time>
      </trkpt>
      <trkpt lat="46.22716" lon="7.15723">
        <ele>2027.08</ele>
        <time>2016-06-17T13:21:54Z</time>
      </trkpt>
      <trkpt lat="46.22722" lon="7.15711">
        <ele>2029</ele>
        <time>2016-06-17T13:22:06Z</time>
      </trkpt>
      <trkpt lat="46.2273" lon="7.15703">
        <ele>2030.92</ele>
        <time>2016-06-17T13:22:19Z</time>
      </trkpt>
      <trkpt lat="46.22738" lon="7.15695">
        <ele>2033.33</ele>
        <time>2016-06-17T13:22:29Z</time>
      </trkpt>
      <trkpt lat="46.2275" lon="7.15685">
        <ele>2034.29</ele>
        <time>2016-06-17T13:22:43Z</time>
      </trkpt>
      <trkpt lat="46.22762" lon="7.15679">
        <ele>2033.81</ele>
        <time>2016-06-17T13:22:55Z</time>
      </trkpt>
      <trkpt lat="46.22769" lon="7.15668">
        <ele>2033.81</ele>
        <time>2016-06-17T13:23:05Z</time>
      </trkpt>
      <trkpt lat="46.22773" lon="7.1566">
        <ele>2032.84</ele>
        <time>2016-06-17T13:23:11Z</time>
      </trkpt>
      <trkpt lat="46.22787" lon="7.15647">
        <ele>2031.88</ele>
        <time>2016-06-17T13:23:28Z</time>
      </trkpt>
      <trkpt lat="46.22799" lon="7.15642">
        <ele>2032.36</ele>
        <time>2016-06-17T13:23:40Z</time>
      </trkpt>
      <trkpt lat="46.22802" lon="7.15641">
        <ele>2032.84</ele>
        <time>2016-06-17T13:23:43Z</time>
      </trkpt>
      <trkpt lat="46.22814" lon="7.15636">
        <ele>2031.88</ele>
        <time>2016-06-17T13:23:53Z</time>
      </trkpt>
      <trkpt lat="46.22825" lon="7.15629">
        <ele>2031.88</ele>
        <time>2016-06-17T13:24:07Z</time>
      </trkpt>
      <trkpt lat="46.22834" lon="7.15628">
        <ele>2032.84</ele>
        <time>2016-06-17T13:24:20Z</time>
      </trkpt>
      <trkpt lat="46.22843" lon="7.1562">
        <ele>2033.81</ele>
        <time>2016-06-17T13:24:34Z</time>
      </trkpt>
      <trkpt lat="46.2285" lon="7.15621">
        <ele>2037.17</ele>
        <time>2016-06-17T13:24:47Z</time>
      </trkpt>
      <trkpt lat="46.22855" lon="7.15623">
        <ele>2040.05</ele>
        <time>2016-06-17T13:24:56Z</time>
      </trkpt>
      <trkpt lat="46.22855" lon="7.15624">
        <ele>2040.54</ele>
        <time>2016-06-17T13:24:57Z</time>
      </trkpt>
      <trkpt lat="46.22862" lon="7.15637">
        <ele>2040.05</ele>
        <time>2016-06-17T13:25:09Z</time>
      </trkpt>
      <trkpt lat="46.22867" lon="7.15636">
        <ele>2040.54</ele>
        <time>2016-06-17T13:25:13Z</time>
      </trkpt>
      <trkpt lat="46.22869" lon="7.15638">
        <ele>2040.54</ele>
        <time>2016-06-17T13:25:16Z</time>
      </trkpt>
      <trkpt lat="46.22872" lon="7.15654">
        <ele>2041.02</ele>
        <time>2016-06-17T13:25:27Z</time>
      </trkpt>
      <trkpt lat="46.22879" lon="7.15658">
        <ele>2041.02</ele>
        <time>2016-06-17T13:25:39Z</time>
      </trkpt>
      <trkpt lat="46.22879" lon="7.1566">
        <ele>2042.94</ele>
        <time>2016-06-17T13:25:51Z</time>
      </trkpt>
      <trkpt lat="46.22882" lon="7.15666">
        <ele>2041.5</ele>
        <time>2016-06-17T13:25:57Z</time>
      </trkpt>
      <trkpt lat="46.22884" lon="7.15671">
        <ele>2041.5</ele>
        <time>2016-06-17T13:26:00Z</time>
      </trkpt>
      <trkpt lat="46.2289" lon="7.15674">
        <ele>2041.5</ele>
        <time>2016-06-17T13:26:11Z</time>
      </trkpt>
      <trkpt lat="46.22892" lon="7.15654">
        <ele>2044.86</ele>
        <time>2016-06-17T13:26:27Z</time>
      </trkpt>
      <trkpt lat="46.2289" lon="7.15637">
        <ele>2047.26</ele>
        <time>2016-06-17T13:26:42Z</time>
      </trkpt>
      <trkpt lat="46.2289" lon="7.15625">
        <ele>2048.23</ele>
        <time>2016-06-17T13:26:57Z</time>
      </trkpt>
      <trkpt lat="46.22892" lon="7.15618">
        <ele>2053.03</ele>
        <time>2016-06-17T13:27:12Z</time>
      </trkpt>
      <trkpt lat="46.22896" lon="7.15612">
        <ele>2057.36</ele>
        <time>2016-06-17T13:27:27Z</time>
      </trkpt>
      <trkpt lat="46.22899" lon="7.15609">
        <ele>2059.76</ele>
        <time>2016-06-17T13:27:35Z</time>
      </trkpt>
      <trkpt lat="46.22905" lon="7.15608">
        <ele>2063.13</ele>
        <time>2016-06-17T13:27:49Z</time>
      </trkpt>
      <trkpt lat="46.22918" lon="7.15611">
        <ele>2064.57</ele>
        <time>2016-06-17T13:28:05Z</time>
      </trkpt>
      <trkpt lat="46.22927" lon="7.15615">
        <ele>2068.41</ele>
        <time>2016-06-17T13:28:19Z</time>
      </trkpt>
      <trkpt lat="46.22935" lon="7.15612">
        <ele>2070.34</ele>
        <time>2016-06-17T13:28:34Z</time>
      </trkpt>
      <trkpt lat="46.22935" lon="7.15611">
        <ele>2070.34</ele>
        <time>2016-06-17T13:28:35Z</time>
      </trkpt>
      <trkpt lat="46.22939" lon="7.15609">
        <ele>2074.66</ele>
        <time>2016-06-17T13:28:47Z</time>
      </trkpt>
      <trkpt lat="46.22939" lon="7.15603">
        <ele>2075.14</ele>
        <time>2016-06-17T13:28:57Z</time>
      </trkpt>
      <trkpt lat="46.22939" lon="7.15593">
        <ele>2077.55</ele>
        <time>2016-06-17T13:29:10Z</time>
      </trkpt>
      <trkpt lat="46.22938" lon="7.15588">
        <ele>2079.95</ele>
        <time>2016-06-17T13:29:22Z</time>
      </trkpt>
      <trkpt lat="46.22941" lon="7.15587">
        <ele>2082.35</ele>
        <time>2016-06-17T13:29:34Z</time>
      </trkpt>
      <trkpt lat="46.22946" lon="7.15586">
        <ele>2085.24</ele>
        <time>2016-06-17T13:29:47Z</time>
      </trkpt>
      <trkpt lat="46.22949" lon="7.15581">
        <ele>2089.08</ele>
        <time>2016-06-17T13:30:00Z</time>
      </trkpt>
      <trkpt lat="46.22955" lon="7.15581">
        <ele>2092.45</ele>
        <time>2016-06-17T13:30:15Z</time>
      </trkpt>
      <trkpt lat="46.22958" lon="7.15578">
        <ele>2097.25</ele>
        <time>2016-06-17T13:30:28Z</time>
      </trkpt>
      <trkpt lat="46.22962" lon="7.1557">
        <ele>2099.18</ele>
        <time>2016-06-17T13:30:41Z</time>
      </trkpt>
      <trkpt lat="46.22961" lon="7.15561">
        <ele>2100.62</ele>
        <time>2016-06-17T13:30:53Z</time>
      </trkpt>
      <trkpt lat="46.22965" lon="7.15554">
        <ele>2100.62</ele>
        <time>2016-06-17T13:31:06Z</time>
      </trkpt>
      <trkpt lat="46.22965" lon="7.15543">
        <ele>2101.1</ele>
        <time>2016-06-17T13:31:21Z</time>
      </trkpt>
      <trkpt lat="46.22961" lon="7.15534">
        <ele>2104.46</ele>
        <time>2016-06-17T13:31:33Z</time>
      </trkpt>
      <trkpt lat="46.22961" lon="7.15527">
        <ele>2108.31</ele>
        <time>2016-06-17T13:31:46Z</time>
      </trkpt>
      <trkpt lat="46.22966" lon="7.15521">
        <ele>2114.08</ele>
        <time>2016-06-17T13:32:01Z</time>
      </trkpt>
      <trkpt lat="46.22969" lon="7.15507">
        <ele>2114.08</ele>
        <time>2016-06-17T13:32:16Z</time>
      </trkpt>
      <trkpt lat="46.22972" lon="7.15497">
        <ele>2113.6</ele>
        <time>2016-06-17T13:32:30Z</time>
      </trkpt>
      <trkpt lat="46.22973" lon="7.15486">
        <ele>2120.32</ele>
        <time>2016-06-17T13:32:45Z</time>
      </trkpt>
      <trkpt lat="46.22977" lon="7.15476">
        <ele>2125.13</ele>
        <time>2016-06-17T13:33:00Z</time>
      </trkpt>
      <trkpt lat="46.22977" lon="7.15469">
        <ele>2129.94</ele>
        <time>2016-06-17T13:33:12Z</time>
      </trkpt>
      <trkpt lat="46.22977" lon="7.15462">
        <ele>2132.34</ele>
        <time>2016-06-17T13:33:26Z</time>
      </trkpt>
      <trkpt lat="46.2298" lon="7.15455">
        <ele>2133.3</ele>
        <time>2016-06-17T13:33:39Z</time>
      </trkpt>
      <trkpt lat="46.22981" lon="7.15438">
        <ele>2133.78</ele>
        <time>2016-06-17T13:33:57Z</time>
      </trkpt>
      <trkpt lat="46.22986" lon="7.15427">
        <ele>2135.23</ele>
        <time>2016-06-17T13:34:10Z</time>
      </trkpt>
      <trkpt lat="46.22987" lon="7.15416">
        <ele>2138.59</ele>
        <time>2016-06-17T13:34:25Z</time>
      </trkpt>
      <trkpt lat="46.22987" lon="7.15414">
        <ele>2138.59</ele>
        <time>2016-06-17T13:34:26Z</time>
      </trkpt>
      <trkpt lat="46.22986" lon="7.15393">
        <ele>2140.51</ele>
        <time>2016-06-17T13:34:42Z</time>
      </trkpt>
      <trkpt lat="46.2299" lon="7.15382">
        <ele>2143.4</ele>
        <time>2016-06-17T13:34:55Z</time>
      </trkpt>
      <trkpt lat="46.22992" lon="7.15369">
        <ele>2148.2</ele>
        <time>2016-06-17T13:35:10Z</time>
      </trkpt>
      <trkpt lat="46.22995" lon="7.15357">
        <ele>2152.53</ele>
        <time>2016-06-17T13:35:25Z</time>
      </trkpt>
      <trkpt lat="46.22999" lon="7.15346">
        <ele>2155.89</ele>
        <time>2016-06-17T13:35:37Z</time>
      </trkpt>
      <trkpt lat="46.23003" lon="7.15334">
        <ele>2159.74</ele>
        <time>2016-06-17T13:35:50Z</time>
      </trkpt>
      <trkpt lat="46.23004" lon="7.15318">
        <ele>2160.22</ele>
        <time>2016-06-17T13:36:02Z</time>
      </trkpt>
      <trkpt lat="46.2301" lon="7.15307">
        <ele>2161.18</ele>
        <time>2016-06-17T13:36:17Z</time>
      </trkpt>
      <trkpt lat="46.23013" lon="7.15302">
        <ele>2162.62</ele>
        <time>2016-06-17T13:36:32Z</time>
      </trkpt>
      <trkpt lat="46.23015" lon="7.15301">
        <ele>2162.14</ele>
        <time>2016-06-17T13:36:45Z</time>
      </trkpt>
      <trkpt lat="46.23016" lon="7.15301">
        <ele>2162.14</ele>
        <time>2016-06-17T13:37:10Z</time>
      </trkpt>
      <trkpt lat="46.23015" lon="7.153">
        <ele>2163.1</ele>
        <time>2016-06-17T13:37:41Z</time>
      </trkpt>
      <trkpt lat="46.23014" lon="7.15299">
        <ele>2163.1</ele>
        <time>2016-06-17T13:38:16Z</time>
      </trkpt>
      <trkpt lat="46.23013" lon="7.15302">
        <ele>2163.1</ele>
        <time>2016-06-17T13:38:46Z</time>
      </trkpt>
      <trkpt lat="46.23014" lon="7.15303">
        <ele>2163.1</ele>
        <time>2016-06-17T13:39:09Z</time>
      </trkpt>
      <trkpt lat="46.23014" lon="7.15301">
        <ele>2163.1</ele>
        <time>2016-06-17T13:39:24Z</time>
      </trkpt>
      <trkpt lat="46.23015" lon="7.15287">
        <ele>2162.14</ele>
        <time>2016-06-17T13:39:35Z</time>
      </trkpt>
      <trkpt lat="46.2302" lon="7.1528">
        <ele>2164.55</ele>
        <time>2016-06-17T13:39:46Z</time>
      </trkpt>
      <trkpt lat="46.23024" lon="7.15268">
        <ele>2166.47</ele>
        <time>2016-06-17T13:39:58Z</time>
      </trkpt>
      <trkpt lat="46.23028" lon="7.1526">
        <ele>2169.35</ele>
        <time>2016-06-17T13:40:12Z</time>
      </trkpt>
      <trkpt lat="46.23032" lon="7.1525">
        <ele>2171.27</ele>
        <time>2016-06-17T13:40:24Z</time>
      </trkpt>
      <trkpt lat="46.23032" lon="7.15233">
        <ele>2170.79</ele>
        <time>2016-06-17T13:40:38Z</time>
      </trkpt>
      <trkpt lat="46.23032" lon="7.15218">
        <ele>2170.31</ele>
        <time>2016-06-17T13:40:52Z</time>
      </trkpt>
      <trkpt lat="46.23034" lon="7.15198">
        <ele>2173.68</ele>
        <time>2016-06-17T13:41:09Z</time>
      </trkpt>
      <trkpt lat="46.23034" lon="7.15182">
        <ele>2175.12</ele>
        <time>2016-06-17T13:41:22Z</time>
      </trkpt>
      <trkpt lat="46.23035" lon="7.15181">
        <ele>2175.12</ele>
        <time>2016-06-17T13:41:23Z</time>
      </trkpt>
      <trkpt lat="46.23034" lon="7.15166">
        <ele>2176.56</ele>
        <time>2016-06-17T13:41:36Z</time>
      </trkpt>
      <trkpt lat="46.23035" lon="7.1515">
        <ele>2176.08</ele>
        <time>2016-06-17T13:41:51Z</time>
      </trkpt>
      <trkpt lat="46.23037" lon="7.15134">
        <ele>2178</ele>
        <time>2016-06-17T13:42:07Z</time>
      </trkpt>
      <trkpt lat="46.23037" lon="7.1513">
        <ele>2178.48</ele>
        <time>2016-06-17T13:42:11Z</time>
      </trkpt>
      <trkpt lat="46.23037" lon="7.15112">
        <ele>2182.33</ele>
        <time>2016-06-17T13:42:29Z</time>
      </trkpt>
      <trkpt lat="46.23036" lon="7.15101">
        <ele>2183.29</ele>
        <time>2016-06-17T13:42:44Z</time>
      </trkpt>
      <trkpt lat="46.23035" lon="7.15085">
        <ele>2184.25</ele>
        <time>2016-06-17T13:42:57Z</time>
      </trkpt>
      <trkpt lat="46.23033" lon="7.15072">
        <ele>2185.69</ele>
        <time>2016-06-17T13:43:11Z</time>
      </trkpt>
      <trkpt lat="46.23034" lon="7.15056">
        <ele>2187.14</ele>
        <time>2016-06-17T13:43:26Z</time>
      </trkpt>
      <trkpt lat="46.23035" lon="7.15055">
        <ele>2187.62</ele>
        <time>2016-06-17T13:43:44Z</time>
      </trkpt>
      <trkpt lat="46.23034" lon="7.15055">
        <ele>2188.1</ele>
        <time>2016-06-17T13:44:09Z</time>
      </trkpt>
      <trkpt lat="46.23029" lon="7.15069">
        <ele>2187.62</ele>
        <time>2016-06-17T13:44:17Z</time>
      </trkpt>
      <trkpt lat="46.23027" lon="7.15105">
        <ele>2179.93</ele>
        <time>2016-06-17T13:44:34Z</time>
      </trkpt>
      <trkpt lat="46.23025" lon="7.15117">
        <ele>2176.56</ele>
        <time>2016-06-17T13:44:40Z</time>
      </trkpt>
      <trkpt lat="46.23024" lon="7.15126">
        <ele>2173.68</ele>
        <time>2016-06-17T13:44:46Z</time>
      </trkpt>
      <trkpt lat="46.23018" lon="7.15147">
        <ele>2167.43</ele>
        <time>2016-06-17T13:44:57Z</time>
      </trkpt>
      <trkpt lat="46.2301" lon="7.15171">
        <ele>2162.14</ele>
        <time>2016-06-17T13:45:12Z</time>
      </trkpt>
      <trkpt lat="46.23009" lon="7.15172">
        <ele>2162.14</ele>
        <time>2016-06-17T13:45:13Z</time>
      </trkpt>
      <trkpt lat="46.23007" lon="7.15188">
        <ele>2158.3</ele>
        <time>2016-06-17T13:45:21Z</time>
      </trkpt>
      <trkpt lat="46.23004" lon="7.15201">
        <ele>2155.41</ele>
        <time>2016-06-17T13:45:29Z</time>
      </trkpt>
      <trkpt lat="46.23004" lon="7.15218">
        <ele>2151.09</ele>
        <time>2016-06-17T13:45:39Z</time>
      </trkpt>
      <trkpt lat="46.22998" lon="7.15244">
        <ele>2146.76</ele>
        <time>2016-06-17T13:45:54Z</time>
      </trkpt>
      <trkpt lat="46.22993" lon="7.15257">
        <ele>2144.84</ele>
        <time>2016-06-17T13:46:01Z</time>
      </trkpt>
      <trkpt lat="46.22989" lon="7.15264">
        <ele>2142.44</ele>
        <time>2016-06-17T13:46:05Z</time>
      </trkpt>
      <trkpt lat="46.22983" lon="7.15301">
        <ele>2142.92</ele>
        <time>2016-06-17T13:46:19Z</time>
      </trkpt>
      <trkpt lat="46.2298" lon="7.15334">
        <ele>2140.99</ele>
        <time>2016-06-17T13:46:32Z</time>
      </trkpt>
      <trkpt lat="46.22982" lon="7.15352">
        <ele>2139.55</ele>
        <time>2016-06-17T13:46:39Z</time>
      </trkpt>
      <trkpt lat="46.22971" lon="7.15379">
        <ele>2131.86</ele>
        <time>2016-06-17T13:46:53Z</time>
      </trkpt>
      <trkpt lat="46.22965" lon="7.15404">
        <ele>2125.61</ele>
        <time>2016-06-17T13:47:04Z</time>
      </trkpt>
      <trkpt lat="46.22957" lon="7.15438">
        <ele>2116.48</ele>
        <time>2016-06-17T13:47:18Z</time>
      </trkpt>
      <trkpt lat="46.22945" lon="7.15459">
        <ele>2111.19</ele>
        <time>2016-06-17T13:47:30Z</time>
      </trkpt>
      <trkpt lat="46.2294" lon="7.15474">
        <ele>2105.42</ele>
        <time>2016-06-17T13:47:38Z</time>
      </trkpt>
      <trkpt lat="46.22939" lon="7.1548">
        <ele>2103.02</ele>
        <time>2016-06-17T13:47:41Z</time>
      </trkpt>
      <trkpt lat="46.22938" lon="7.15492">
        <ele>2099.66</ele>
        <time>2016-06-17T13:47:52Z</time>
      </trkpt>
      <trkpt lat="46.22939" lon="7.15499">
        <ele>2097.73</ele>
        <time>2016-06-17T13:47:55Z</time>
      </trkpt>
      <trkpt lat="46.22941" lon="7.15513">
        <ele>2093.41</ele>
        <time>2016-06-17T13:48:01Z</time>
      </trkpt>
      <trkpt lat="46.2294" lon="7.15521">
        <ele>2091.49</ele>
        <time>2016-06-17T13:48:05Z</time>
      </trkpt>
      <trkpt lat="46.22938" lon="7.15531">
        <ele>2090.04</ele>
        <time>2016-06-17T13:48:11Z</time>
      </trkpt>
      <trkpt lat="46.22936" lon="7.15533">
        <ele>2090.04</ele>
        <time>2016-06-17T13:48:14Z</time>
      </trkpt>
      <trkpt lat="46.22933" lon="7.15538">
        <ele>2089.56</ele>
        <time>2016-06-17T13:48:19Z</time>
      </trkpt>
      <trkpt lat="46.2293" lon="7.15537">
        <ele>2088.12</ele>
        <time>2016-06-17T13:48:22Z</time>
      </trkpt>
      <trkpt lat="46.22928" lon="7.15542">
        <ele>2086.2</ele>
        <time>2016-06-17T13:48:26Z</time>
      </trkpt>
      <trkpt lat="46.22927" lon="7.15549">
        <ele>2084.28</ele>
        <time>2016-06-17T13:48:30Z</time>
      </trkpt>
      <trkpt lat="46.22928" lon="7.15552">
        <ele>2082.83</ele>
        <time>2016-06-17T13:48:32Z</time>
      </trkpt>
      <trkpt lat="46.22926" lon="7.15564">
        <ele>2078.51</ele>
        <time>2016-06-17T13:48:42Z</time>
      </trkpt>
      <trkpt lat="46.2293" lon="7.15575">
        <ele>2076.1</ele>
        <time>2016-06-17T13:48:47Z</time>
      </trkpt>
      <trkpt lat="46.22934" lon="7.15595">
        <ele>2071.3</ele>
        <time>2016-06-17T13:49:00Z</time>
      </trkpt>
      <trkpt lat="46.22933" lon="7.15594">
        <ele>2071.78</ele>
        <time>2016-06-17T13:49:02Z</time>
      </trkpt>
      <trkpt lat="46.22931" lon="7.15593">
        <ele>2072.26</ele>
        <time>2016-06-17T13:49:04Z</time>
      </trkpt>
      <trkpt lat="46.2293" lon="7.15595">
        <ele>2072.26</ele>
        <time>2016-06-17T13:49:06Z</time>
      </trkpt>
      <trkpt lat="46.22929" lon="7.15597">
        <ele>2072.74</ele>
        <time>2016-06-17T13:49:08Z</time>
      </trkpt>
      <trkpt lat="46.22923" lon="7.15605">
        <ele>2070.82</ele>
        <time>2016-06-17T13:49:15Z</time>
      </trkpt>
      <trkpt lat="46.22909" lon="7.15603">
        <ele>2067.45</ele>
        <time>2016-06-17T13:49:22Z</time>
      </trkpt>
      <trkpt lat="46.22898" lon="7.1561">
        <ele>2064.57</ele>
        <time>2016-06-17T13:49:30Z</time>
      </trkpt>
      <trkpt lat="46.22892" lon="7.15615">
        <ele>2063.13</ele>
        <time>2016-06-17T13:49:34Z</time>
      </trkpt>
      <trkpt lat="46.2289" lon="7.1562">
        <ele>2062.17</ele>
        <time>2016-06-17T13:49:37Z</time>
      </trkpt>
      <trkpt lat="46.22882" lon="7.1564">
        <ele>2055.44</ele>
        <time>2016-06-17T13:49:48Z</time>
      </trkpt>
      <trkpt lat="46.22882" lon="7.15642">
        <ele>2054.96</ele>
        <time>2016-06-17T13:49:49Z</time>
      </trkpt>
      <trkpt lat="46.22882" lon="7.15646">
        <ele>2053.51</ele>
        <time>2016-06-17T13:49:51Z</time>
      </trkpt>
      <trkpt lat="46.22879" lon="7.15652">
        <ele>2051.11</ele>
        <time>2016-06-17T13:49:55Z</time>
      </trkpt>
      <trkpt lat="46.22872" lon="7.15636">
        <ele>2047.75</ele>
        <time>2016-06-17T13:50:04Z</time>
      </trkpt>
      <trkpt lat="46.22863" lon="7.15621">
        <ele>2049.19</ele>
        <time>2016-06-17T13:50:13Z</time>
      </trkpt>
      <trkpt lat="46.22861" lon="7.15617">
        <ele>2048.71</ele>
        <time>2016-06-17T13:50:15Z</time>
      </trkpt>
      <trkpt lat="46.22853" lon="7.15615">
        <ele>2048.71</ele>
        <time>2016-06-17T13:50:19Z</time>
      </trkpt>
      <trkpt lat="46.22823" lon="7.15628">
        <ele>2044.38</ele>
        <time>2016-06-17T13:50:34Z</time>
      </trkpt>
      <trkpt lat="46.22809" lon="7.15642">
        <ele>2041.02</ele>
        <time>2016-06-17T13:50:44Z</time>
      </trkpt>
      <trkpt lat="46.228" lon="7.15652">
        <ele>2036.21</ele>
        <time>2016-06-17T13:50:51Z</time>
      </trkpt>
      <trkpt lat="46.2278" lon="7.15681">
        <ele>2026.6</ele>
        <time>2016-06-17T13:51:05Z</time>
      </trkpt>
      <trkpt lat="46.22767" lon="7.15708">
        <ele>2021.79</ele>
        <time>2016-06-17T13:51:16Z</time>
      </trkpt>
      <trkpt lat="46.2276" lon="7.15716">
        <ele>2021.79</ele>
        <time>2016-06-17T13:51:20Z</time>
      </trkpt>
      <trkpt lat="46.22745" lon="7.15736">
        <ele>2016.5</ele>
        <time>2016-06-17T13:51:30Z</time>
      </trkpt>
      <trkpt lat="46.2273" lon="7.15763">
        <ele>2010.73</ele>
        <time>2016-06-17T13:51:42Z</time>
      </trkpt>
      <trkpt lat="46.22723" lon="7.15771">
        <ele>2009.29</ele>
        <time>2016-06-17T13:51:47Z</time>
      </trkpt>
      <trkpt lat="46.22703" lon="7.15802">
        <ele>2006.89</ele>
        <time>2016-06-17T13:52:00Z</time>
      </trkpt>
      <trkpt lat="46.22695" lon="7.1584">
        <ele>2000.16</ele>
        <time>2016-06-17T13:52:11Z</time>
      </trkpt>
      <trkpt lat="46.22686" lon="7.15883">
        <ele>1992.95</ele>
        <time>2016-06-17T13:52:24Z</time>
      </trkpt>
      <trkpt lat="46.22686" lon="7.15901">
        <ele>1989.59</ele>
        <time>2016-06-17T13:52:30Z</time>
      </trkpt>
      <trkpt lat="46.22681" lon="7.15922">
        <ele>1986.7</ele>
        <time>2016-06-17T13:52:38Z</time>
      </trkpt>
      <trkpt lat="46.22661" lon="7.15965">
        <ele>1978.05</ele>
        <time>2016-06-17T13:52:50Z</time>
      </trkpt>
      <trkpt lat="46.22659" lon="7.15969">
        <ele>1977.09</ele>
        <time>2016-06-17T13:52:52Z</time>
      </trkpt>
      <trkpt lat="46.22662" lon="7.15979">
        <ele>1975.65</ele>
        <time>2016-06-17T13:52:59Z</time>
      </trkpt>
      <trkpt lat="46.22654" lon="7.16002">
        <ele>1977.57</ele>
        <time>2016-06-17T13:53:08Z</time>
      </trkpt>
      <trkpt lat="46.22645" lon="7.1603">
        <ele>1982.86</ele>
        <time>2016-06-17T13:53:20Z</time>
      </trkpt>
      <trkpt lat="46.22646" lon="7.16042">
        <ele>1985.26</ele>
        <time>2016-06-17T13:53:24Z</time>
      </trkpt>
      <trkpt lat="46.22639" lon="7.16058">
        <ele>1989.59</ele>
        <time>2016-06-17T13:53:29Z</time>
      </trkpt>
      <trkpt lat="46.2263" lon="7.16076">
        <ele>1987.18</ele>
        <time>2016-06-17T13:53:37Z</time>
      </trkpt>
      <trkpt lat="46.22617" lon="7.16094">
        <ele>1989.1</ele>
        <time>2016-06-17T13:53:47Z</time>
      </trkpt>
      <trkpt lat="46.22608" lon="7.16105">
        <ele>1996.32</ele>
        <time>2016-06-17T13:53:55Z</time>
      </trkpt>
      <trkpt lat="46.22606" lon="7.16104">
        <ele>1997.76</ele>
        <time>2016-06-17T13:53:57Z</time>
      </trkpt>
      <trkpt lat="46.22587" lon="7.1612">
        <ele>1995.83</ele>
        <time>2016-06-17T13:54:09Z</time>
      </trkpt>
      <trkpt lat="46.22583" lon="7.16127">
        <ele>1993.43</ele>
        <time>2016-06-17T13:54:15Z</time>
      </trkpt>
      <trkpt lat="46.22577" lon="7.16135">
        <ele>1989.59</ele>
        <time>2016-06-17T13:54:20Z</time>
      </trkpt>
      <trkpt lat="46.22569" lon="7.16146">
        <ele>1985.26</ele>
        <time>2016-06-17T13:54:26Z</time>
      </trkpt>
      <trkpt lat="46.22567" lon="7.16151">
        <ele>1983.82</ele>
        <time>2016-06-17T13:54:29Z</time>
      </trkpt>
      <trkpt lat="46.22566" lon="7.16161">
        <ele>1979.97</ele>
        <time>2016-06-17T13:54:34Z</time>
      </trkpt>
      <trkpt lat="46.22569" lon="7.16165">
        <ele>1977.57</ele>
        <time>2016-06-17T13:54:37Z</time>
      </trkpt>
      <trkpt lat="46.22563" lon="7.16176">
        <ele>1975.17</ele>
        <time>2016-06-17T13:54:46Z</time>
      </trkpt>
      <trkpt lat="46.22562" lon="7.16195">
        <ele>1970.36</ele>
        <time>2016-06-17T13:54:56Z</time>
      </trkpt>
      <trkpt lat="46.22562" lon="7.16199">
        <ele>1969.88</ele>
        <time>2016-06-17T13:54:59Z</time>
      </trkpt>
      <trkpt lat="46.22562" lon="7.1621">
        <ele>1967.96</ele>
        <time>2016-06-17T13:55:05Z</time>
      </trkpt>
      <trkpt lat="46.22562" lon="7.16219">
        <ele>1965.55</ele>
        <time>2016-06-17T13:55:09Z</time>
      </trkpt>
      <trkpt lat="46.22553" lon="7.16236">
        <ele>1957.86</ele>
        <time>2016-06-17T13:55:20Z</time>
      </trkpt>
      <trkpt lat="46.22551" lon="7.16245">
        <ele>1953.54</ele>
        <time>2016-06-17T13:55:28Z</time>
      </trkpt>
      <trkpt lat="46.22551" lon="7.16253">
        <ele>1950.65</ele>
        <time>2016-06-17T13:55:33Z</time>
      </trkpt>
      <trkpt lat="46.22554" lon="7.16259">
        <ele>1949.21</ele>
        <time>2016-06-17T13:55:37Z</time>
      </trkpt>
      <trkpt lat="46.22551" lon="7.16272">
        <ele>1944.88</ele>
        <time>2016-06-17T13:55:48Z</time>
      </trkpt>
      <trkpt lat="46.2255" lon="7.16291">
        <ele>1938.64</ele>
        <time>2016-06-17T13:55:58Z</time>
      </trkpt>
      <trkpt lat="46.22544" lon="7.16295">
        <ele>1936.71</ele>
        <time>2016-06-17T13:56:03Z</time>
      </trkpt>
      <trkpt lat="46.22541" lon="7.16296">
        <ele>1936.71</ele>
        <time>2016-06-17T13:56:05Z</time>
      </trkpt>
      <trkpt lat="46.2254" lon="7.16299">
        <ele>1935.27</ele>
        <time>2016-06-17T13:56:09Z</time>
      </trkpt>
      <trkpt lat="46.22535" lon="7.16302">
        <ele>1933.35</ele>
        <time>2016-06-17T13:56:13Z</time>
      </trkpt>
      <trkpt lat="46.22533" lon="7.16303">
        <ele>1932.39</ele>
        <time>2016-06-17T13:56:15Z</time>
      </trkpt>
      <trkpt lat="46.22534" lon="7.16313">
        <ele>1930.46</ele>
        <time>2016-06-17T13:56:21Z</time>
      </trkpt>
      <trkpt lat="46.22535" lon="7.16315">
        <ele>1929.5</ele>
        <time>2016-06-17T13:56:23Z</time>
      </trkpt>
      <trkpt lat="46.22532" lon="7.16319">
        <ele>1929.02</ele>
        <time>2016-06-17T13:56:27Z</time>
      </trkpt>
      <trkpt lat="46.22531" lon="7.16327">
        <ele>1927.1</ele>
        <time>2016-06-17T13:56:33Z</time>
      </trkpt>
      <trkpt lat="46.2253" lon="7.16329">
        <ele>1926.62</ele>
        <time>2016-06-17T13:56:35Z</time>
      </trkpt>
      <trkpt lat="46.22529" lon="7.16341">
        <ele>1922.29</ele>
        <time>2016-06-17T13:56:44Z</time>
      </trkpt>
      <trkpt lat="46.22527" lon="7.16343">
        <ele>1920.85</ele>
        <time>2016-06-17T13:56:49Z</time>
      </trkpt>
      <trkpt lat="46.22523" lon="7.16361">
        <ele>1913.64</ele>
        <time>2016-06-17T13:56:58Z</time>
      </trkpt>
      <trkpt lat="46.22521" lon="7.16366">
        <ele>1911.72</ele>
        <time>2016-06-17T13:57:00Z</time>
      </trkpt>
      <trkpt lat="46.22513" lon="7.16369">
        <ele>1907.39</ele>
        <time>2016-06-17T13:57:05Z</time>
      </trkpt>
      <trkpt lat="46.22492" lon="7.16339">
        <ele>1903.55</ele>
        <time>2016-06-17T13:57:17Z</time>
      </trkpt>
      <trkpt lat="46.22463" lon="7.16315">
        <ele>1897.3</ele>
        <time>2016-06-17T13:57:29Z</time>
      </trkpt>
      <trkpt lat="46.22442" lon="7.1628">
        <ele>1892.97</ele>
        <time>2016-06-17T13:57:41Z</time>
      </trkpt>
      <trkpt lat="46.22426" lon="7.16272">
        <ele>1890.09</ele>
        <time>2016-06-17T13:57:47Z</time>
      </trkpt>
      <trkpt lat="46.22413" lon="7.16276">
        <ele>1889.61</ele>
        <time>2016-06-17T13:57:51Z</time>
      </trkpt>
      <trkpt lat="46.22398" lon="7.16289">
        <ele>1888.65</ele>
        <time>2016-06-17T13:57:57Z</time>
      </trkpt>
      <trkpt lat="46.2239" lon="7.16299">
        <ele>1888.17</ele>
        <time>2016-06-17T13:58:01Z</time>
      </trkpt>
      <trkpt lat="46.22363" lon="7.16334">
        <ele>1886.24</ele>
        <time>2016-06-17T13:58:13Z</time>
      </trkpt>
      <trkpt lat="46.22341" lon="7.16339">
        <ele>1884.8</ele>
        <time>2016-06-17T13:58:22Z</time>
      </trkpt>
      <trkpt lat="46.22311" lon="7.16329">
        <ele>1882.88</ele>
        <time>2016-06-17T13:58:33Z</time>
      </trkpt>
      <trkpt lat="46.22281" lon="7.16321">
        <ele>1878.55</ele>
        <time>2016-06-17T13:58:44Z</time>
      </trkpt>
      <trkpt lat="46.22254" lon="7.16327">
        <ele>1874.71</ele>
        <time>2016-06-17T13:58:54Z</time>
      </trkpt>
      <trkpt lat="46.22227" lon="7.16334">
        <ele>1872.3</ele>
        <time>2016-06-17T13:59:04Z</time>
      </trkpt>
      <trkpt lat="46.22198" lon="7.16331">
        <ele>1870.86</ele>
        <time>2016-06-17T13:59:15Z</time>
      </trkpt>
      <trkpt lat="46.2217" lon="7.1632">
        <ele>1870.38</ele>
        <time>2016-06-17T13:59:27Z</time>
      </trkpt>
      <trkpt lat="46.22144" lon="7.163">
        <ele>1871.34</ele>
        <time>2016-06-17T13:59:39Z</time>
      </trkpt>
      <trkpt lat="46.22114" lon="7.16302">
        <ele>1871.34</ele>
        <time>2016-06-17T13:59:50Z</time>
      </trkpt>
      <trkpt lat="46.22087" lon="7.16302">
        <ele>1871.34</ele>
        <time>2016-06-17T14:00:01Z</time>
      </trkpt>
      <trkpt lat="46.22055" lon="7.16292">
        <ele>1868.94</ele>
        <time>2016-06-17T14:00:13Z</time>
      </trkpt>
      <trkpt lat="46.22031" lon="7.16271">
        <ele>1863.65</ele>
        <time>2016-06-17T14:00:24Z</time>
      </trkpt>
      <trkpt lat="46.22025" lon="7.16265">
        <ele>1862.21</ele>
        <time>2016-06-17T14:00:27Z</time>
      </trkpt>
      <trkpt lat="46.21996" lon="7.16273">
        <ele>1860.29</ele>
        <time>2016-06-17T14:00:38Z</time>
      </trkpt>
      <trkpt lat="46.21966" lon="7.16289">
        <ele>1858.85</ele>
        <time>2016-06-17T14:00:49Z</time>
      </trkpt>
      <trkpt lat="46.2194" lon="7.16294">
        <ele>1858.37</ele>
        <time>2016-06-17T14:00:59Z</time>
      </trkpt>
      <trkpt lat="46.21913" lon="7.16289">
        <ele>1854.52</ele>
        <time>2016-06-17T14:01:08Z</time>
      </trkpt>
      <trkpt lat="46.2189" lon="7.16295">
        <ele>1852.6</ele>
        <time>2016-06-17T14:01:15Z</time>
      </trkpt>
      <trkpt lat="46.21861" lon="7.16332">
        <ele>1847.31</ele>
        <time>2016-06-17T14:01:28Z</time>
      </trkpt>
      <trkpt lat="46.21833" lon="7.16345">
        <ele>1842.98</ele>
        <time>2016-06-17T14:01:38Z</time>
      </trkpt>
      <trkpt lat="46.21802" lon="7.16363">
        <ele>1836.74</ele>
        <time>2016-06-17T14:01:49Z</time>
      </trkpt>
      <trkpt lat="46.21776" lon="7.16374">
        <ele>1835.29</ele>
        <time>2016-06-17T14:01:59Z</time>
      </trkpt>
      <trkpt lat="46.2175" lon="7.16371">
        <ele>1831.45</ele>
        <time>2016-06-17T14:02:09Z</time>
      </trkpt>
      <trkpt lat="46.21719" lon="7.16376">
        <ele>1826.16</ele>
        <time>2016-06-17T14:02:20Z</time>
      </trkpt>
      <trkpt lat="46.21687" lon="7.16369">
        <ele>1817.99</ele>
        <time>2016-06-17T14:02:31Z</time>
      </trkpt>
      <trkpt lat="46.21653" lon="7.16369">
        <ele>1812.7</ele>
        <time>2016-06-17T14:02:42Z</time>
      </trkpt>
      <trkpt lat="46.2163" lon="7.16365">
        <ele>1810.3</ele>
        <time>2016-06-17T14:02:50Z</time>
      </trkpt>
      <trkpt lat="46.21622" lon="7.16368">
        <ele>1810.3</ele>
        <time>2016-06-17T14:02:57Z</time>
      </trkpt>
      <trkpt lat="46.21595" lon="7.16361">
        <ele>1810.3</ele>
        <time>2016-06-17T14:03:10Z</time>
      </trkpt>
      <trkpt lat="46.2158" lon="7.16354">
        <ele>1809.82</ele>
        <time>2016-06-17T14:03:20Z</time>
      </trkpt>
      <trkpt lat="46.2155" lon="7.16345">
        <ele>1809.34</ele>
        <time>2016-06-17T14:03:31Z</time>
      </trkpt>
      <trkpt lat="46.21545" lon="7.16354">
        <ele>1808.38</ele>
        <time>2016-06-17T14:03:37Z</time>
      </trkpt>
      <trkpt lat="46.21534" lon="7.16357">
        <ele>1809.34</ele>
        <time>2016-06-17T14:03:43Z</time>
      </trkpt>
      <trkpt lat="46.21506" lon="7.16358">
        <ele>1808.86</ele>
        <time>2016-06-17T14:03:55Z</time>
      </trkpt>
      <trkpt lat="46.21481" lon="7.16358">
        <ele>1807.42</ele>
        <time>2016-06-17T14:04:02Z</time>
      </trkpt>
      <trkpt lat="46.21479" lon="7.16365">
        <ele>1806.94</ele>
        <time>2016-06-17T14:04:06Z</time>
      </trkpt>
      <trkpt lat="46.21475" lon="7.16366">
        <ele>1806.94</ele>
        <time>2016-06-17T14:04:08Z</time>
      </trkpt>
      <trkpt lat="46.21459" lon="7.16369">
        <ele>1805.97</ele>
        <time>2016-06-17T14:04:15Z</time>
      </trkpt>
      <trkpt lat="46.21428" lon="7.16389">
        <ele>1804.05</ele>
        <time>2016-06-17T14:04:28Z</time>
      </trkpt>
      <trkpt lat="46.21402" lon="7.16396">
        <ele>1805.01</ele>
        <time>2016-06-17T14:04:38Z</time>
      </trkpt>
      <trkpt lat="46.21372" lon="7.16425">
        <ele>1809.34</ele>
        <time>2016-06-17T14:04:51Z</time>
      </trkpt>
      <trkpt lat="46.21366" lon="7.16428">
        <ele>1809.82</ele>
        <time>2016-06-17T14:04:53Z</time>
      </trkpt>
      <trkpt lat="46.21354" lon="7.16456">
        <ele>1809.34</ele>
        <time>2016-06-17T14:05:03Z</time>
      </trkpt>
      <trkpt lat="46.21347" lon="7.16467">
        <ele>1809.82</ele>
        <time>2016-06-17T14:05:07Z</time>
      </trkpt>
      <trkpt lat="46.21346" lon="7.16492">
        <ele>1809.82</ele>
        <time>2016-06-17T14:05:12Z</time>
      </trkpt>
      <trkpt lat="46.21349" lon="7.16512">
        <ele>1806.94</ele>
        <time>2016-06-17T14:05:18Z</time>
      </trkpt>
      <trkpt lat="46.2134" lon="7.16531">
        <ele>1799.24</ele>
        <time>2016-06-17T14:05:27Z</time>
      </trkpt>
      <trkpt lat="46.21338" lon="7.16539">
        <ele>1795.88</ele>
        <time>2016-06-17T14:05:34Z</time>
      </trkpt>
      <trkpt lat="46.21325" lon="7.16547">
        <ele>1796.36</ele>
        <time>2016-06-17T14:05:44Z</time>
      </trkpt>
      <trkpt lat="46.21319" lon="7.16553">
        <ele>1796.84</ele>
        <time>2016-06-17T14:05:48Z</time>
      </trkpt>
      <trkpt lat="46.21314" lon="7.16558">
        <ele>1791.07</ele>
        <time>2016-06-17T14:06:00Z</time>
      </trkpt>
      <trkpt lat="46.21315" lon="7.16562">
        <ele>1783.86</ele>
        <time>2016-06-17T14:06:29Z</time>
      </trkpt>
      <trkpt lat="46.21315" lon="7.16563">
        <ele>1782.42</ele>
        <time>2016-06-17T14:07:02Z</time>
      </trkpt>
      <trkpt lat="46.21315" lon="7.1656">
        <ele>1780.98</ele>
        <time>2016-06-17T14:07:28Z</time>
      </trkpt>
      <trkpt lat="46.21315" lon="7.1656">
        <ele>1778.1</ele>
        <time>2016-06-17T14:07:55Z</time>
      </trkpt>
      <trkpt lat="46.21315" lon="7.1656">
        <ele>1778.1</ele>
        <time>2016-06-17T14:07:57Z</time>
      </trkpt>
      <trkpt lat="46.21306" lon="7.16566">
        <ele>1774.25</ele>
        <time>2016-06-17T14:08:04Z</time>
      </trkpt>
      <trkpt lat="46.21294" lon="7.16565">
        <ele>1769.92</ele>
        <time>2016-06-17T14:08:10Z</time>
      </trkpt>
      <trkpt lat="46.21274" lon="7.16564">
        <ele>1762.23</ele>
        <time>2016-06-17T14:08:20Z</time>
      </trkpt>
      <trkpt lat="46.21254" lon="7.16561">
        <ele>1756.95</ele>
        <time>2016-06-17T14:08:29Z</time>
      </trkpt>
      <trkpt lat="46.21242" lon="7.16558">
        <ele>1757.43</ele>
        <time>2016-06-17T14:08:34Z</time>
      </trkpt>
      <trkpt lat="46.21219" lon="7.16559">
        <ele>1748.78</ele>
        <time>2016-06-17T14:08:45Z</time>
      </trkpt>
      <trkpt lat="46.21217" lon="7.16567">
        <ele>1742.53</ele>
        <time>2016-06-17T14:08:56Z</time>
      </trkpt>
      <trkpt lat="46.21216" lon="7.16566">
        <ele>1742.05</ele>
        <time>2016-06-17T14:08:57Z</time>
      </trkpt>
      <trkpt lat="46.21214" lon="7.16565">
        <ele>1741.08</ele>
        <time>2016-06-17T14:08:59Z</time>
      </trkpt>
      <trkpt lat="46.21208" lon="7.16572">
        <ele>1740.12</ele>
        <time>2016-06-17T14:09:11Z</time>
      </trkpt>
      <trkpt lat="46.21202" lon="7.16541">
        <ele>1735.32</ele>
        <time>2016-06-17T14:09:24Z</time>
      </trkpt>
      <trkpt lat="46.21201" lon="7.16538">
        <ele>1734.84</ele>
        <time>2016-06-17T14:09:25Z</time>
      </trkpt>
      <trkpt lat="46.21182" lon="7.16499">
        <ele>1729.55</ele>
        <time>2016-06-17T14:09:36Z</time>
      </trkpt>
      <trkpt lat="46.21165" lon="7.16475">
        <ele>1722.82</ele>
        <time>2016-06-17T14:09:47Z</time>
      </trkpt>
      <trkpt lat="46.21149" lon="7.16486">
        <ele>1722.82</ele>
        <time>2016-06-17T14:09:57Z</time>
      </trkpt>
      <trkpt lat="46.21136" lon="7.16514">
        <ele>1722.82</ele>
        <time>2016-06-17T14:10:09Z</time>
      </trkpt>
      <trkpt lat="46.21136" lon="7.16543">
        <ele>1723.78</ele>
        <time>2016-06-17T14:10:16Z</time>
      </trkpt>
      <trkpt lat="46.21126" lon="7.16551">
        <ele>1724.74</ele>
        <time>2016-06-17T14:10:23Z</time>
      </trkpt>
      <trkpt lat="46.21105" lon="7.16538">
        <ele>1724.74</ele>
        <time>2016-06-17T14:10:32Z</time>
      </trkpt>
      <trkpt lat="46.21104" lon="7.16521">
        <ele>1719.46</ele>
        <time>2016-06-17T14:10:43Z</time>
      </trkpt>
      <trkpt lat="46.21092" lon="7.16512">
        <ele>1718.01</ele>
        <time>2016-06-17T14:10:52Z</time>
      </trkpt>
      <trkpt lat="46.21089" lon="7.16505">
        <ele>1716.09</ele>
        <time>2016-06-17T14:10:57Z</time>
      </trkpt>
      <trkpt lat="46.21091" lon="7.16495">
        <ele>1715.61</ele>
        <time>2016-06-17T14:11:03Z</time>
      </trkpt>
      <trkpt lat="46.2109" lon="7.16477">
        <ele>1714.17</ele>
        <time>2016-06-17T14:11:11Z</time>
      </trkpt>
      <trkpt lat="46.21081" lon="7.16432">
        <ele>1710.8</ele>
        <time>2016-06-17T14:11:24Z</time>
      </trkpt>
      <trkpt lat="46.21081" lon="7.16427">
        <ele>1710.32</ele>
        <time>2016-06-17T14:11:25Z</time>
      </trkpt>
      <trkpt lat="46.21084" lon="7.16434">
        <ele>1708.88</ele>
        <time>2016-06-17T14:11:31Z</time>
      </trkpt>
      <trkpt lat="46.21074" lon="7.1644">
        <ele>1707.44</ele>
        <time>2016-06-17T14:11:41Z</time>
      </trkpt>
      <trkpt lat="46.2106" lon="7.16436">
        <ele>1706.48</ele>
        <time>2016-06-17T14:11:48Z</time>
      </trkpt>
      <trkpt lat="46.21056" lon="7.16441">
        <ele>1705.52</ele>
        <time>2016-06-17T14:11:51Z</time>
      </trkpt>
      <trkpt lat="46.21049" lon="7.16451">
        <ele>1705.52</ele>
        <time>2016-06-17T14:12:02Z</time>
      </trkpt>
      <trkpt lat="46.21046" lon="7.1645">
        <ele>1706.48</ele>
        <time>2016-06-17T14:12:06Z</time>
      </trkpt>
      <trkpt lat="46.21038" lon="7.16452">
        <ele>1706.96</ele>
        <time>2016-06-17T14:12:10Z</time>
      </trkpt>
      <trkpt lat="46.21027" lon="7.16464">
        <ele>1707.44</ele>
        <time>2016-06-17T14:12:16Z</time>
      </trkpt>
      <trkpt lat="46.21022" lon="7.16469">
        <ele>1707.44</ele>
        <time>2016-06-17T14:12:19Z</time>
      </trkpt>
      <trkpt lat="46.21019" lon="7.1648">
        <ele>1707.44</ele>
        <time>2016-06-17T14:12:23Z</time>
      </trkpt>
      <trkpt lat="46.21017" lon="7.16499">
        <ele>1707.44</ele>
        <time>2016-06-17T14:12:29Z</time>
      </trkpt>
      <trkpt lat="46.21016" lon="7.16551">
        <ele>1707.92</ele>
        <time>2016-06-17T14:12:40Z</time>
      </trkpt>
      <trkpt lat="46.21017" lon="7.16566">
        <ele>1708.4</ele>
        <time>2016-06-17T14:12:44Z</time>
      </trkpt>
      <trkpt lat="46.21018" lon="7.1658">
        <ele>1707.92</ele>
        <time>2016-06-17T14:12:49Z</time>
      </trkpt>
      <trkpt lat="46.21025" lon="7.16619">
        <ele>1706.96</ele>
        <time>2016-06-17T14:13:00Z</time>
      </trkpt>
      <trkpt lat="46.21025" lon="7.16625">
        <ele>1706.96</ele>
        <time>2016-06-17T14:13:02Z</time>
      </trkpt>
      <trkpt lat="46.21024" lon="7.16665">
        <ele>1706.48</ele>
        <time>2016-06-17T14:13:16Z</time>
      </trkpt>
      <trkpt lat="46.21026" lon="7.16689">
        <ele>1706</ele>
        <time>2016-06-17T14:13:26Z</time>
      </trkpt>
      <trkpt lat="46.21023" lon="7.16711">
        <ele>1696.86</ele>
        <time>2016-06-17T14:13:47Z</time>
      </trkpt>
      <trkpt lat="46.21025" lon="7.16729">
        <ele>1685.33</ele>
        <time>2016-06-17T14:14:06Z</time>
      </trkpt>
      <trkpt lat="46.21023" lon="7.1674">
        <ele>1667.54</ele>
        <time>2016-06-17T14:14:28Z</time>
      </trkpt>
      <trkpt lat="46.21024" lon="7.16739">
        <ele>1665.14</ele>
        <time>2016-06-17T14:14:36Z</time>
      </trkpt>
      <trkpt lat="46.21024" lon="7.16752">
        <ele>1667.54</ele>
        <time>2016-06-17T14:14:42Z</time>
      </trkpt>
      <trkpt lat="46.21037" lon="7.16785">
        <ele>1679.08</ele>
        <time>2016-06-17T14:14:54Z</time>
      </trkpt>
      <trkpt lat="46.21048" lon="7.16809">
        <ele>1678.6</ele>
        <time>2016-06-17T14:15:03Z</time>
      </trkpt>
      <trkpt lat="46.21041" lon="7.1684">
        <ele>1676.2</ele>
        <time>2016-06-17T14:15:12Z</time>
      </trkpt>
      <trkpt lat="46.21032" lon="7.16877">
        <ele>1673.31</ele>
        <time>2016-06-17T14:15:23Z</time>
      </trkpt>
      <trkpt lat="46.21028" lon="7.16915">
        <ele>1665.14</ele>
        <time>2016-06-17T14:15:35Z</time>
      </trkpt>
      <trkpt lat="46.21027" lon="7.16956">
        <ele>1657.93</ele>
        <time>2016-06-17T14:15:47Z</time>
      </trkpt>
      <trkpt lat="46.21029" lon="7.16987">
        <ele>1651.68</ele>
        <time>2016-06-17T14:15:58Z</time>
      </trkpt>
      <trkpt lat="46.21028" lon="7.16997">
        <ele>1646.88</ele>
        <time>2016-06-17T14:16:03Z</time>
      </trkpt>
      <trkpt lat="46.21008" lon="7.17028">
        <ele>1639.19</ele>
        <time>2016-06-17T14:16:16Z</time>
      </trkpt>
      <trkpt lat="46.20987" lon="7.17049">
        <ele>1632.94</ele>
        <time>2016-06-17T14:16:27Z</time>
      </trkpt>
      <trkpt lat="46.2097" lon="7.17075">
        <ele>1631.49</ele>
        <time>2016-06-17T14:16:39Z</time>
      </trkpt>
      <trkpt lat="46.20952" lon="7.17096">
        <ele>1631.98</ele>
        <time>2016-06-17T14:16:50Z</time>
      </trkpt>
      <trkpt lat="46.2094" lon="7.17109">
        <ele>1629.57</ele>
        <time>2016-06-17T14:16:57Z</time>
      </trkpt>
      <trkpt lat="46.20938" lon="7.17114">
        <ele>1629.09</ele>
        <time>2016-06-17T14:16:59Z</time>
      </trkpt>
      <trkpt lat="46.2094" lon="7.17127">
        <ele>1628.13</ele>
        <time>2016-06-17T14:17:03Z</time>
      </trkpt>
      <trkpt lat="46.20949" lon="7.1715">
        <ele>1625.25</ele>
        <time>2016-06-17T14:17:11Z</time>
      </trkpt>
      <trkpt lat="46.2094" lon="7.17163">
        <ele>1623.8</ele>
        <time>2016-06-17T14:17:22Z</time>
      </trkpt>
      <trkpt lat="46.2092" lon="7.17187">
        <ele>1617.07</ele>
        <time>2016-06-17T14:17:35Z</time>
      </trkpt>
      <trkpt lat="46.20895" lon="7.172">
        <ele>1609.38</ele>
        <time>2016-06-17T14:17:47Z</time>
      </trkpt>
      <trkpt lat="46.20872" lon="7.17212">
        <ele>1599.29</ele>
        <time>2016-06-17T14:17:58Z</time>
      </trkpt>
      <trkpt lat="46.20846" lon="7.17226">
        <ele>1591.6</ele>
        <time>2016-06-17T14:18:09Z</time>
      </trkpt>
      <trkpt lat="46.20823" lon="7.17246">
        <ele>1586.31</ele>
        <time>2016-06-17T14:18:21Z</time>
      </trkpt>
      <trkpt lat="46.20817" lon="7.17249">
        <ele>1584.87</ele>
        <time>2016-06-17T14:18:24Z</time>
      </trkpt>
      <trkpt lat="46.2081" lon="7.17258">
        <ele>1581.51</ele>
        <time>2016-06-17T14:18:29Z</time>
      </trkpt>
      <trkpt lat="46.20799" lon="7.17275">
        <ele>1575.74</ele>
        <time>2016-06-17T14:18:37Z</time>
      </trkpt>
      <trkpt lat="46.20791" lon="7.17285">
        <ele>1571.89</ele>
        <time>2016-06-17T14:18:42Z</time>
      </trkpt>
      <trkpt lat="46.2079" lon="7.1729">
        <ele>1570.45</ele>
        <time>2016-06-17T14:18:44Z</time>
      </trkpt>
      <trkpt lat="46.20793" lon="7.173">
        <ele>1567.57</ele>
        <time>2016-06-17T14:18:48Z</time>
      </trkpt>
      <trkpt lat="46.20811" lon="7.17313">
        <ele>1559.88</ele>
        <time>2016-06-17T14:18:56Z</time>
      </trkpt>
      <trkpt lat="46.20819" lon="7.1732">
        <ele>1556.51</ele>
        <time>2016-06-17T14:19:00Z</time>
      </trkpt>
      <trkpt lat="46.20835" lon="7.17332">
        <ele>1551.22</ele>
        <time>2016-06-17T14:19:11Z</time>
      </trkpt>
      <trkpt lat="46.20842" lon="7.17335">
        <ele>1549.78</ele>
        <time>2016-06-17T14:19:18Z</time>
      </trkpt>
      <trkpt lat="46.20866" lon="7.17364">
        <ele>1548.82</ele>
        <time>2016-06-17T14:19:32Z</time>
      </trkpt>
      <trkpt lat="46.20871" lon="7.17369">
        <ele>1548.82</ele>
        <time>2016-06-17T14:19:35Z</time>
      </trkpt>
      <trkpt lat="46.20881" lon="7.17387">
        <ele>1546.9</ele>
        <time>2016-06-17T14:19:47Z</time>
      </trkpt>
      <trkpt lat="46.20892" lon="7.17389">
        <ele>1544.5</ele>
        <time>2016-06-17T14:19:54Z</time>
      </trkpt>
      <trkpt lat="46.20926" lon="7.17401">
        <ele>1540.17</ele>
        <time>2016-06-17T14:20:04Z</time>
      </trkpt>
      <trkpt lat="46.20956" lon="7.17401">
        <ele>1540.17</ele>
        <time>2016-06-17T14:20:11Z</time>
      </trkpt>
      <trkpt lat="46.2099" lon="7.17403">
        <ele>1539.21</ele>
        <time>2016-06-17T14:20:21Z</time>
      </trkpt>
      <trkpt lat="46.21005" lon="7.17409">
        <ele>1539.69</ele>
        <time>2016-06-17T14:20:26Z</time>
      </trkpt>
      <trkpt lat="46.21022" lon="7.17414">
        <ele>1539.69</ele>
        <time>2016-06-17T14:20:41Z</time>
      </trkpt>
      <trkpt lat="46.21034" lon="7.17432">
        <ele>1536.8</ele>
        <time>2016-06-17T14:20:51Z</time>
      </trkpt>
      <trkpt lat="46.2104" lon="7.17438">
        <ele>1535.84</ele>
        <time>2016-06-17T14:20:54Z</time>
      </trkpt>
      <trkpt lat="46.2104" lon="7.17452">
        <ele>1537.77</ele>
        <time>2016-06-17T14:21:06Z</time>
      </trkpt>
      <trkpt lat="46.21039" lon="7.17452">
        <ele>1537.77</ele>
        <time>2016-06-17T14:21:07Z</time>
      </trkpt>
      <trkpt lat="46.21036" lon="7.17454">
        <ele>1537.77</ele>
        <time>2016-06-17T14:21:10Z</time>
      </trkpt>
      <trkpt lat="46.21014" lon="7.17481">
        <ele>1543.05</ele>
        <time>2016-06-17T14:21:21Z</time>
      </trkpt>
      <trkpt lat="46.21003" lon="7.17497">
        <ele>1542.57</ele>
        <time>2016-06-17T14:21:33Z</time>
      </trkpt>
      <trkpt lat="46.20983" lon="7.17512">
        <ele>1539.69</ele>
        <time>2016-06-17T14:21:44Z</time>
      </trkpt>
      <trkpt lat="46.20979" lon="7.17513">
        <ele>1539.21</ele>
        <time>2016-06-17T14:21:45Z</time>
      </trkpt>
      <trkpt lat="46.20977" lon="7.17521">
        <ele>1537.77</ele>
        <time>2016-06-17T14:21:50Z</time>
      </trkpt>
      <trkpt lat="46.20985" lon="7.17535">
        <ele>1536.32</ele>
        <time>2016-06-17T14:22:00Z</time>
      </trkpt>
      <trkpt lat="46.20985" lon="7.17538">
        <ele>1535.36</ele>
        <time>2016-06-17T14:22:03Z</time>
      </trkpt>
      <trkpt lat="46.20987" lon="7.17547">
        <ele>1532.48</ele>
        <time>2016-06-17T14:22:06Z</time>
      </trkpt>
      <trkpt lat="46.20997" lon="7.17557">
        <ele>1531.04</ele>
        <time>2016-06-17T14:22:12Z</time>
      </trkpt>
      <trkpt lat="46.21008" lon="7.17565">
        <ele>1529.11</ele>
        <time>2016-06-17T14:22:27Z</time>
      </trkpt>
      <trkpt lat="46.21016" lon="7.17569">
        <ele>1528.15</ele>
        <time>2016-06-17T14:22:41Z</time>
      </trkpt>
      <trkpt lat="46.21028" lon="7.17571">
        <ele>1530.08</ele>
        <time>2016-06-17T14:22:54Z</time>
      </trkpt>
      <trkpt lat="46.21027" lon="7.17566">
        <ele>1530.08</ele>
        <time>2016-06-17T14:22:58Z</time>
      </trkpt>
      <trkpt lat="46.21021" lon="7.17567">
        <ele>1529.59</ele>
        <time>2016-06-17T14:23:10Z</time>
      </trkpt>
      <trkpt lat="46.2102" lon="7.17568">
        <ele>1529.59</ele>
        <time>2016-06-17T14:23:12Z</time>
      </trkpt>
      <trkpt lat="46.21015" lon="7.17571">
        <ele>1529.59</ele>
        <time>2016-06-17T14:23:17Z</time>
      </trkpt>
      <trkpt lat="46.20997" lon="7.1758">
        <ele>1531.52</ele>
        <time>2016-06-17T14:23:26Z</time>
      </trkpt>
      <trkpt lat="46.20994" lon="7.17585">
        <ele>1531.52</ele>
        <time>2016-06-17T14:23:31Z</time>
      </trkpt>
      <trkpt lat="46.20999" lon="7.17593">
        <ele>1532.48</ele>
        <time>2016-06-17T14:23:37Z</time>
      </trkpt>
      <trkpt lat="46.2101" lon="7.17622">
        <ele>1526.23</ele>
        <time>2016-06-17T14:23:47Z</time>
      </trkpt>
      <trkpt lat="46.20996" lon="7.17636">
        <ele>1525.75</ele>
        <time>2016-06-17T14:23:59Z</time>
      </trkpt>
      <trkpt lat="46.20995" lon="7.17641">
        <ele>1524.31</ele>
        <time>2016-06-17T14:24:03Z</time>
      </trkpt>
      <trkpt lat="46.21" lon="7.17649">
        <ele>1523.83</ele>
        <time>2016-06-17T14:24:07Z</time>
      </trkpt>
      <trkpt lat="46.21005" lon="7.17684">
        <ele>1508.45</ele>
        <time>2016-06-17T14:24:21Z</time>
      </trkpt>
      <trkpt lat="46.21024" lon="7.17693">
        <ele>1507.97</ele>
        <time>2016-06-17T14:24:25Z</time>
      </trkpt>
      <trkpt lat="46.2103" lon="7.17694">
        <ele>1507.97</ele>
        <time>2016-06-17T14:24:28Z</time>
      </trkpt>
      <trkpt lat="46.21036" lon="7.17696">
        <ele>1507.48</ele>
        <time>2016-06-17T14:24:33Z</time>
      </trkpt>
      <trkpt lat="46.21043" lon="7.17694">
        <ele>1499.79</ele>
        <time>2016-06-17T14:24:40Z</time>
      </trkpt>
      <trkpt lat="46.21042" lon="7.17697">
        <ele>1497.39</ele>
        <time>2016-06-17T14:24:45Z</time>
      </trkpt>
      <trkpt lat="46.21035" lon="7.17698">
        <ele>1499.79</ele>
        <time>2016-06-17T14:24:51Z</time>
      </trkpt>
      <trkpt lat="46.21028" lon="7.17713">
        <ele>1495.95</ele>
        <time>2016-06-17T14:25:02Z</time>
      </trkpt>
      <trkpt lat="46.21033" lon="7.17716">
        <ele>1495.47</ele>
        <time>2016-06-17T14:25:06Z</time>
      </trkpt>
      <trkpt lat="46.21042" lon="7.17715">
        <ele>1495.95</ele>
        <time>2016-06-17T14:25:10Z</time>
      </trkpt>
      <trkpt lat="46.21064" lon="7.17716">
        <ele>1496.43</ele>
        <time>2016-06-17T14:25:22Z</time>
      </trkpt>
      <trkpt lat="46.21084" lon="7.17699">
        <ele>1494.99</ele>
        <time>2016-06-17T14:25:34Z</time>
      </trkpt>
      <trkpt lat="46.21119" lon="7.17684">
        <ele>1484.41</ele>
        <time>2016-06-17T14:25:46Z</time>
      </trkpt>
      <trkpt lat="46.21153" lon="7.17661">
        <ele>1469.99</ele>
        <time>2016-06-17T14:25:58Z</time>
      </trkpt>
      <trkpt lat="46.2117" lon="7.17643">
        <ele>1462.3</ele>
        <time>2016-06-17T14:26:09Z</time>
      </trkpt>
      <trkpt lat="46.21181" lon="7.17628">
        <ele>1456.53</ele>
        <time>2016-06-17T14:26:22Z</time>
      </trkpt>
      <trkpt lat="46.21192" lon="7.17612">
        <ele>1453.65</ele>
        <time>2016-06-17T14:26:36Z</time>
      </trkpt>
      <trkpt lat="46.21206" lon="7.17597">
        <ele>1447.4</ele>
        <time>2016-06-17T14:26:50Z</time>
      </trkpt>
      <trkpt lat="46.21227" lon="7.17575">
        <ele>1443.56</ele>
        <time>2016-06-17T14:27:09Z</time>
      </trkpt>
      <trkpt lat="46.21246" lon="7.17567">
        <ele>1443.56</ele>
        <time>2016-06-17T14:27:25Z</time>
      </trkpt>
      <trkpt lat="46.21245" lon="7.1757">
        <ele>1443.08</ele>
        <time>2016-06-17T14:27:29Z</time>
      </trkpt>
      <trkpt lat="46.21231" lon="7.17568">
        <ele>1441.63</ele>
        <time>2016-06-17T14:27:47Z</time>
      </trkpt>
      <trkpt lat="46.2123" lon="7.1757">
        <ele>1441.15</ele>
        <time>2016-06-17T14:28:02Z</time>
      </trkpt>
      <trkpt lat="46.2123" lon="7.17569">
        <ele>1439.71</ele>
        <time>2016-06-17T14:28:17Z</time>
      </trkpt>
      <trkpt lat="46.21229" lon="7.17569">
        <ele>1440.19</ele>
        <time>2016-06-17T14:28:34Z</time>
      </trkpt>
      <trkpt lat="46.21229" lon="7.1757">
        <ele>1440.19</ele>
        <time>2016-06-17T14:28:59Z</time>
      </trkpt>
      <trkpt lat="46.21229" lon="7.17571">
        <ele>1440.19</ele>
        <time>2016-06-17T14:29:09Z</time>
      </trkpt>
      <trkpt lat="46.21229" lon="7.17572">
        <ele>1440.67</ele>
        <time>2016-06-17T14:29:31Z</time>
      </trkpt>
      <trkpt lat="46.21228" lon="7.17573">
        <ele>1440.67</ele>
        <time>2016-06-17T14:29:55Z</time>
      </trkpt>
      <trkpt lat="46.21229" lon="7.17573">
        <ele>1440.67</ele>
        <time>2016-06-17T14:30:16Z</time>
      </trkpt>
      <trkpt lat="46.21229" lon="7.17573">
        <ele>1440.67</ele>
        <time>2016-06-17T14:30:17Z</time>
      </trkpt>
      <trkpt lat="46.21228" lon="7.17575">
        <ele>1441.15</ele>
        <time>2016-06-17T14:30:27Z</time>
      </trkpt>
      <trkpt lat="46.21228" lon="7.17575">
        <ele>1441.15</ele>
        <time>2016-06-17T14:30:49Z</time>
      </trkpt>
      <trkpt lat="46.21228" lon="7.17574">
        <ele>1441.63</ele>
        <time>2016-06-17T14:31:11Z</time>
      </trkpt>
      <trkpt lat="46.21228" lon="7.17573">
        <ele>1442.6</ele>
        <time>2016-06-17T14:31:34Z</time>
      </trkpt>
      <trkpt lat="46.21228" lon="7.17573">
        <ele>1443.08</ele>
        <time>2016-06-17T14:31:55Z</time>
      </trkpt>
      <trkpt lat="46.21227" lon="7.17574">
        <ele>1443.08</ele>
        <time>2016-06-17T14:32:20Z</time>
      </trkpt>
      <trkpt lat="46.21227" lon="7.17573">
        <ele>1443.08</ele>
        <time>2016-06-17T14:32:31Z</time>
      </trkpt>
      <trkpt lat="46.21227" lon="7.17571">
        <ele>1443.08</ele>
        <time>2016-06-17T14:32:50Z</time>
      </trkpt>
      <trkpt lat="46.21226" lon="7.17572">
        <ele>1442.11</ele>
        <time>2016-06-17T14:33:16Z</time>
      </trkpt>
      <trkpt lat="46.21226" lon="7.17571">
        <ele>1442.6</ele>
        <time>2016-06-17T14:33:35Z</time>
      </trkpt>
      <trkpt lat="46.21226" lon="7.17571">
        <ele>1443.56</ele>
        <time>2016-06-17T14:33:54Z</time>
      </trkpt>
      <trkpt lat="46.21226" lon="7.1757">
        <ele>1444.52</ele>
        <time>2016-06-17T14:34:08Z</time>
      </trkpt>
      <trkpt lat="46.21226" lon="7.1757">
        <ele>1445.96</ele>
        <time>2016-06-17T14:34:41Z</time>
      </trkpt>
      <trkpt lat="46.21225" lon="7.17568">
        <ele>1445</ele>
        <time>2016-06-17T14:35:05Z</time>
      </trkpt>
      <trkpt lat="46.21224" lon="7.17568">
        <ele>1444.52</ele>
        <time>2016-06-17T14:35:31Z</time>
      </trkpt>
      <trkpt lat="46.21224" lon="7.17567">
        <ele>1443.56</ele>
        <time>2016-06-17T14:35:52Z</time>
      </trkpt>
      <trkpt lat="46.21223" lon="7.17567">
        <ele>1443.08</ele>
        <time>2016-06-17T14:36:07Z</time>
      </trkpt>
    </trkseg>
  </trk>
</gpx>